AAL109 EGLL-KBOS
Flight info
| Callsign | AAL109 |
|---|---|
| Flight time | N/A |
| Altitude | 24000 |
| Route | CPT L9 DIDZA N14 OKSAW/N0477F380 N14 ELNIF DCT MEDOG DCT VATRY DCT DOGAL/M083F380 DCT 5420N DCT 5330N DCT H5140 DCT 5050N DCT ELSIR/N0477F380 N406A TOPPS DCT AJJAY OOSHN5 |
| Aircraft | B772/H-SDE2E3FGHIJ5LORVWXY/LB1D1 |
Departure
| Time | 2026-05-07 21:21 |
|---|---|
| Airport | London Heathrow Airport (EGLL) |
Arrival
| Time | N/A |
|---|---|
| Airport | Boston Logan International Airport (KBOS) |
| Time | Latitude | Longitude | Altitude | Speed | Heading |
|---|---|---|---|---|---|
| 2026-05-07 20:56 | 51.47393 | -0.46246 | 91 ft | 0 kts | 236° |
| 2026-05-07 21:09 | 51.47402 | -0.46225 | 94 ft | 4 kts | 242° |
| 2026-05-07 21:09 | 51.47412 | -0.46186 | 92 ft | 4 kts | 258° |
| 2026-05-07 21:09 | 51.47414 | -0.46146 | 93 ft | 4 kts | 282° |
| 2026-05-07 21:10 | 51.47406 | -0.46114 | 92 ft | 4 kts | 318° |
| 2026-05-07 21:10 | 51.47400 | -0.46106 | 91 ft | 0 kts | 326° |
| 2026-05-07 21:12 | 51.47402 | -0.46108 | 91 ft | 2 kts | 326° |
| 2026-05-07 21:12 | 51.47424 | -0.46132 | 94 ft | 6 kts | 326° |
| 2026-05-07 21:13 | 51.47466 | -0.46177 | 94 ft | 8 kts | 326° |
| 2026-05-07 21:13 | 51.47505 | -0.46235 | 95 ft | 8 kts | 298° |
| 2026-05-07 21:13 | 51.47513 | -0.46321 | 94 ft | 8 kts | 272° |
| 2026-05-07 21:13 | 51.47515 | -0.46408 | 94 ft | 9 kts | 271° |
| 2026-05-07 21:14 | 51.47515 | -0.46538 | 91 ft | 14 kts | 269° |
| 2026-05-07 21:14 | 51.47503 | -0.46707 | 96 ft | 16 kts | 236° |
| 2026-05-07 21:14 | 51.47399 | -0.46731 | 92 ft | 16 kts | 175° |
| 2026-05-07 21:14 | 51.47289 | -0.46727 | 91 ft | 16 kts | 180° |
| 2026-05-07 21:15 | 51.47180 | -0.46726 | 91 ft | 16 kts | 180° |
| 2026-05-07 21:15 | 51.47107 | -0.46726 | 91 ft | 16 kts | 180° |
| 2026-05-07 21:15 | 51.47004 | -0.46678 | 95 ft | 16 kts | 146° |
| 2026-05-07 21:15 | 51.46884 | -0.46548 | 94 ft | 16 kts | 146° |
| 2026-05-07 21:16 | 51.46823 | -0.46483 | 95 ft | 15 kts | 146° |
| 2026-05-07 21:16 | 51.46743 | -0.46426 | 92 ft | 13 kts | 174° |
| 2026-05-07 21:16 | 51.46665 | -0.46465 | 95 ft | 13 kts | 238° |
| 2026-05-07 21:16 | 51.46657 | -0.46607 | 95 ft | 13 kts | 270° |
| 2026-05-07 21:17 | 51.46657 | -0.46762 | 95 ft | 18 kts | 270° |
| 2026-05-07 21:17 | 51.46657 | -0.46984 | 94 ft | 20 kts | 269° |
| 2026-05-07 21:17 | 51.46656 | -0.47209 | 94 ft | 20 kts | 269° |
| 2026-05-07 21:17 | 51.46655 | -0.47434 | 94 ft | 20 kts | 269° |
| 2026-05-07 21:18 | 51.46654 | -0.47659 | 91 ft | 20 kts | 269° |
| 2026-05-07 21:18 | 51.46653 | -0.47885 | 91 ft | 20 kts | 270° |
| 2026-05-07 21:18 | 51.46654 | -0.48110 | 92 ft | 20 kts | 270° |
| 2026-05-07 21:18 | 51.46652 | -0.48334 | 94 ft | 20 kts | 269° |
| 2026-05-07 21:19 | 51.46651 | -0.48555 | 93 ft | 18 kts | 270° |
| 2026-05-07 21:19 | 51.46650 | -0.48673 | 93 ft | 4 kts | 269° |
| 2026-05-07 21:19 | 51.46640 | -0.48727 | 94 ft | 7 kts | 236° |
| 2026-05-07 21:19 | 51.46586 | -0.48774 | 95 ft | 11 kts | 195° |
| 2026-05-07 21:20 | 51.46502 | -0.48754 | 94 ft | 13 kts | 146° |
| 2026-05-07 21:20 | 51.46477 | -0.48609 | 95 ft | 15 kts | 89° |
| 2026-05-07 21:20 | 51.46479 | -0.48308 | 93 ft | 48 kts | 89° |
| 2026-05-07 21:20 | 51.46480 | -0.47425 | 90 ft | 109 kts | 89° |
| 2026-05-07 21:21 | 51.46481 | -0.45915 | 111 ft | 158 kts | 91° |
| 2026-05-07 21:21 | 51.46500 | -0.44162 | 637 ft | 159 kts | 90° |
| 2026-05-07 21:21 | 51.46517 | -0.42328 | 1176 ft | 167 kts | 92° |
| 2026-05-07 21:21 | 51.46287 | -0.40529 | 1512 ft | 172 kts | 120° |
| 2026-05-07 21:22 | 51.45413 | -0.39190 | 1695 ft | 183 kts | 159° |
| 2026-05-07 21:22 | 51.44106 | -0.39050 | 1862 ft | 200 kts | 195° |
| 2026-05-07 21:22 | 51.42872 | -0.40207 | 1989 ft | 218 kts | 219° |
| 2026-05-07 21:22 | 51.41683 | -0.41880 | 2178 ft | 238 kts | 220° |
| 2026-05-07 21:23 | 51.40549 | -0.43901 | 2420 ft | 252 kts | 244° |
| 2026-05-07 21:23 | 51.40280 | -0.46695 | 2886 ft | 261 kts | 280° |
| 2026-05-07 21:23 | 51.40751 | -0.49503 | 3358 ft | 265 kts | 285° |
| 2026-05-07 21:23 | 51.41240 | -0.52387 | 3960 ft | 268 kts | 284° |
| 2026-05-07 21:24 | 51.41685 | -0.55285 | 4652 ft | 269 kts | 283° |
| 2026-05-07 21:24 | 51.42105 | -0.58212 | 5300 ft | 270 kts | 282° |
| 2026-05-07 21:24 | 51.42508 | -0.61156 | 5935 ft | 271 kts | 282° |
| 2026-05-07 21:24 | 51.42887 | -0.64107 | 6591 ft | 271 kts | 281° |
| 2026-05-07 21:25 | 51.43249 | -0.67070 | 7213 ft | 270 kts | 280° |
| 2026-05-07 21:25 | 51.43597 | -0.70033 | 7787 ft | 272 kts | 280° |
| 2026-05-07 21:25 | 51.43938 | -0.73012 | 8355 ft | 273 kts | 279° |
| 2026-05-07 21:25 | 51.44276 | -0.76021 | 8955 ft | 273 kts | 279° |
| 2026-05-07 21:26 | 51.44607 | -0.79017 | 9540 ft | 274 kts | 279° |
| 2026-05-07 21:26 | 51.44938 | -0.82034 | 10114 ft | 275 kts | 279° |
| 2026-05-07 21:26 | 51.45268 | -0.85065 | 10378 ft | 288 kts | 279° |
| 2026-05-07 21:26 | 51.45624 | -0.88364 | 10510 ft | 307 kts | 279° |
| 2026-05-07 21:27 | 51.45995 | -0.91808 | 10668 ft | 326 kts | 279° |
| 2026-05-07 21:27 | 51.46388 | -0.95477 | 11037 ft | 339 kts | 278° |
| 2026-05-07 21:27 | 51.46793 | -0.99253 | 11574 ft | 348 kts | 278° |
| 2026-05-07 21:27 | 51.47205 | -1.03113 | 12276 ft | 353 kts | 278° |
| 2026-05-07 21:28 | 51.47623 | -1.07042 | 13083 ft | 358 kts | 278° |
| 2026-05-07 21:28 | 51.48045 | -1.11019 | 13853 ft | 364 kts | 278° |
| 2026-05-07 21:28 | 51.48471 | -1.15057 | 14572 ft | 369 kts | 278° |
| 2026-05-07 21:28 | 51.49005 | -1.19047 | 15264 ft | 372 kts | 287° |
| 2026-05-07 21:29 | 51.50128 | -1.22820 | 15960 ft | 380 kts | 301° |
| 2026-05-07 21:29 | 51.51792 | -1.26152 | 16737 ft | 386 kts | 314° |
| 2026-05-07 21:29 | 51.53787 | -1.29065 | 17520 ft | 389 kts | 316° |
| 2026-05-07 21:29 | 51.55811 | -1.32001 | 18255 ft | 394 kts | 315° |
| 2026-05-07 21:30 | 51.57861 | -1.35049 | 18915 ft | 398 kts | 315° |
| 2026-05-07 21:30 | 51.59777 | -1.38191 | 19563 ft | 401 kts | 308° |
| 2026-05-07 21:30 | 51.61477 | -1.41771 | 20228 ft | 402 kts | 302° |
| 2026-05-07 21:30 | 51.62911 | -1.45630 | 20885 ft | 404 kts | 296° |
| 2026-05-07 21:31 | 51.64237 | -1.49718 | 21571 ft | 408 kts | 295° |
| 2026-05-07 21:31 | 51.65532 | -1.53754 | 22212 ft | 412 kts | 295° |
| 2026-05-07 21:31 | 51.66869 | -1.57861 | 22877 ft | 416 kts | 296° |
| 2026-05-07 21:31 | 51.68233 | -1.62011 | 23524 ft | 420 kts | 296° |
| 2026-05-07 21:32 | 51.69475 | -1.66272 | 24036 ft | 421 kts | 289° |
| 2026-05-07 21:32 | 51.70392 | -1.70814 | 24052 ft | 421 kts | 282° |
| 2026-05-07 21:32 | 51.70961 | -1.75348 | 24057 ft | 419 kts | 275° |
| 2026-05-07 21:32 | 51.71278 | -1.80021 | 24058 ft | 419 kts | 274° |
| 2026-05-07 21:33 | 51.71592 | -1.84688 | 24056 ft | 419 kts | 276° |
| 2026-05-07 21:33 | 51.72141 | -1.89325 | 24057 ft | 420 kts | 281° |
| 2026-05-07 21:33 | 51.72833 | -1.93899 | 24065 ft | 420 kts | 282° |
| 2026-05-07 21:33 | 51.73540 | -1.98478 | 24062 ft | 421 kts | 282° |
| 2026-05-07 21:34 | 51.74243 | -2.03054 | 24061 ft | 421 kts | 282° |
| 2026-05-07 21:34 | 51.74940 | -2.07651 | 24057 ft | 421 kts | 282° |
| 2026-05-07 21:34 | 51.75626 | -2.12243 | 24056 ft | 421 kts | 281° |
| 2026-05-07 21:34 | 51.76309 | -2.16855 | 24223 ft | 424 kts | 281° |
| 2026-05-07 21:35 | 51.76993 | -2.21507 | 24801 ft | 426 kts | 281° |
| 2026-05-07 21:35 | 51.77677 | -2.26172 | 25395 ft | 427 kts | 281° |
| 2026-05-07 21:35 | 51.78351 | -2.30791 | 25904 ft | 429 kts | 281° |
| 2026-05-07 21:35 | 51.79045 | -2.35556 | 26371 ft | 433 kts | 281° |
| 2026-05-07 21:36 | 51.79730 | -2.40270 | 26823 ft | 436 kts | 281° |
| 2026-05-07 21:36 | 51.80424 | -2.45055 | 27271 ft | 439 kts | 281° |
| 2026-05-07 21:36 | 51.81124 | -2.49895 | 27721 ft | 442 kts | 281° |
| 2026-05-07 21:36 | 51.81822 | -2.54747 | 28159 ft | 444 kts | 281° |
| 2026-05-07 21:37 | 51.82499 | -2.59638 | 28590 ft | 447 kts | 280° |
| 2026-05-07 21:37 | 51.83156 | -2.64571 | 28992 ft | 449 kts | 279° |
| 2026-05-07 21:37 | 51.83807 | -2.69521 | 29367 ft | 452 kts | 279° |
| 2026-05-07 21:37 | 51.84457 | -2.74440 | 29745 ft | 455 kts | 280° |
| 2026-05-07 21:38 | 51.85128 | -2.79494 | 30108 ft | 457 kts | 280° |
| 2026-05-07 21:38 | 51.85797 | -2.84532 | 30399 ft | 460 kts | 280° |
| 2026-05-07 21:38 | 51.86473 | -2.89606 | 30689 ft | 462 kts | 280° |
| 2026-05-07 21:38 | 51.87151 | -2.94691 | 30962 ft | 464 kts | 279° |
| 2026-05-07 21:39 | 51.87834 | -2.99819 | 31220 ft | 466 kts | 279° |
| 2026-05-07 21:39 | 51.88514 | -3.04949 | 31467 ft | 467 kts | 279° |
| 2026-05-07 21:39 | 51.89195 | -3.10106 | 31701 ft | 469 kts | 279° |
| 2026-05-07 21:39 | 51.89874 | -3.15271 | 31911 ft | 471 kts | 279° |
| 2026-05-07 21:40 | 51.90553 | -3.20460 | 32179 ft | 471 kts | 279° |
| 2026-05-07 21:40 | 51.91210 | -3.25489 | 32486 ft | 470 kts | 279° |
| 2026-05-07 21:40 | 51.91874 | -3.30598 | 32844 ft | 469 kts | 279° |
| 2026-05-07 21:40 | 51.92544 | -3.35770 | 33134 ft | 468 kts | 279° |
| 2026-05-07 21:41 | 51.93218 | -3.40988 | 33413 ft | 468 kts | 279° |
| 2026-05-07 21:41 | 51.93882 | -3.46144 | 33731 ft | 467 kts | 279° |
| 2026-05-07 21:41 | 51.94604 | -3.51266 | 34063 ft | 468 kts | 283° |
| 2026-05-07 21:41 | 51.95615 | -3.56289 | 34271 ft | 470 kts | 288° |
| 2026-05-07 21:42 | 51.96913 | -3.61180 | 34474 ft | 473 kts | 294° |
| 2026-05-07 21:42 | 51.98412 | -3.65880 | 34712 ft | 473 kts | 295° |
| 2026-05-07 21:42 | 51.99934 | -3.70552 | 34959 ft | 473 kts | 295° |
| 2026-05-07 21:42 | 52.01483 | -3.75290 | 35186 ft | 473 kts | 295° |
| 2026-05-07 21:43 | 52.03028 | -3.80045 | 35437 ft | 472 kts | 295° |
| 2026-05-07 21:43 | 52.04532 | -3.84712 | 35673 ft | 472 kts | 295° |
| 2026-05-07 21:43 | 52.06064 | -3.89500 | 35890 ft | 472 kts | 295° |
| 2026-05-07 21:43 | 52.07576 | -3.94251 | 36140 ft | 471 kts | 295° |
| 2026-05-07 21:44 | 52.09060 | -3.98935 | 36360 ft | 471 kts | 295° |
| 2026-05-07 21:44 | 52.10548 | -4.03646 | 36570 ft | 471 kts | 295° |
| 2026-05-07 21:44 | 52.12053 | -4.08421 | 36800 ft | 471 kts | 295° |
| 2026-05-07 21:44 | 52.13553 | -4.13189 | 37004 ft | 471 kts | 295° |
| 2026-05-07 21:45 | 52.15052 | -4.17960 | 37219 ft | 471 kts | 295° |
| 2026-05-07 21:45 | 52.16509 | -4.22604 | 37409 ft | 470 kts | 295° |
| 2026-05-07 21:45 | 52.18017 | -4.27421 | 37628 ft | 470 kts | 295° |
| 2026-05-07 21:45 | 52.19483 | -4.32112 | 37803 ft | 470 kts | 295° |
| 2026-05-07 21:46 | 52.20968 | -4.36873 | 37940 ft | 471 kts | 295° |
| 2026-05-07 21:46 | 52.22449 | -4.41634 | 37996 ft | 473 kts | 295° |
| 2026-05-07 21:46 | 52.25445 | -4.51288 | 38029 ft | 477 kts | 295° |
| 2026-05-07 21:47 | 52.28428 | -4.60938 | 38035 ft | 479 kts | 295° |
| 2026-05-07 21:47 | 52.31420 | -4.70656 | 38033 ft | 481 kts | 295° |
| 2026-05-07 21:48 | 52.34443 | -4.80515 | 38031 ft | 482 kts | 295° |
| 2026-05-07 21:48 | 52.37433 | -4.90304 | 38023 ft | 481 kts | 295° |
| 2026-05-07 21:49 | 52.40405 | -5.00074 | 38020 ft | 480 kts | 294° |
| 2026-05-07 21:49 | 52.43358 | -5.09822 | 38022 ft | 478 kts | 294° |
| 2026-05-07 21:50 | 52.46303 | -5.19587 | 38014 ft | 477 kts | 294° |
| 2026-05-07 21:50 | 52.49227 | -5.29317 | 38018 ft | 475 kts | 294° |
| 2026-05-07 21:51 | 52.52125 | -5.39001 | 38016 ft | 474 kts | 294° |
| 2026-05-07 21:51 | 52.55021 | -5.48781 | 38017 ft | 473 kts | 292° |
| 2026-05-07 21:52 | 52.57245 | -5.58822 | 38013 ft | 471 kts | 286° |
| 2026-05-07 21:52 | 52.59226 | -5.69128 | 38016 ft | 471 kts | 285° |
| 2026-05-07 21:53 | 52.61200 | -5.79424 | 38004 ft | 471 kts | 286° |
| 2026-05-07 21:53 | 52.63189 | -5.89712 | 38010 ft | 472 kts | 286° |
| 2026-05-07 21:54 | 52.65180 | -5.99990 | 38000 ft | 472 kts | 286° |
| 2026-05-07 21:54 | 52.67159 | -6.10251 | 37998 ft | 473 kts | 285° |
| 2026-05-07 21:55 | 52.69141 | -6.20593 | 37997 ft | 473 kts | 285° |
| 2026-05-07 21:55 | 52.71125 | -6.30997 | 37997 ft | 473 kts | 285° |
| 2026-05-07 21:56 | 52.73082 | -6.41323 | 37994 ft | 473 kts | 285° |
| 2026-05-07 21:56 | 52.75039 | -6.51706 | 37995 ft | 473 kts | 285° |
| 2026-05-07 21:57 | 52.76984 | -6.62087 | 37996 ft | 473 kts | 285° |
| 2026-05-07 21:57 | 52.78912 | -6.72429 | 37994 ft | 473 kts | 285° |
| 2026-05-07 21:58 | 52.80831 | -6.82777 | 37992 ft | 472 kts | 285° |
| 2026-05-07 21:58 | 52.82773 | -6.93313 | 37992 ft | 472 kts | 285° |
| 2026-05-07 21:59 | 52.84685 | -7.03746 | 37990 ft | 472 kts | 284° |
| 2026-05-07 21:59 | 52.86579 | -7.14132 | 37987 ft | 472 kts | 284° |
| 2026-05-07 22:00 | 52.88146 | -7.22775 | 37982 ft | 471 kts | 284° |
| 2026-05-07 22:00 | 52.90324 | -7.34866 | 37987 ft | 471 kts | 284° |
| 2026-05-07 22:01 | 52.91888 | -7.43584 | 37986 ft | 471 kts | 284° |
| 2026-05-07 22:01 | 52.93734 | -7.53938 | 37985 ft | 470 kts | 284° |
| 2026-05-07 22:02 | 52.95578 | -7.64337 | 37988 ft | 470 kts | 284° |
| 2026-05-07 22:02 | 52.97419 | -7.74781 | 37988 ft | 470 kts | 284° |
| 2026-05-07 22:03 | 52.99234 | -7.85136 | 37980 ft | 470 kts | 284° |
| 2026-05-07 22:03 | 53.01051 | -7.95565 | 37982 ft | 470 kts | 284° |
| 2026-05-07 22:04 | 53.02859 | -8.06005 | 37986 ft | 470 kts | 283° |
| 2026-05-07 22:04 | 53.04656 | -8.16440 | 37981 ft | 470 kts | 283° |
| 2026-05-07 22:05 | 53.06444 | -8.26886 | 37986 ft | 469 kts | 283° |
| 2026-05-07 22:05 | 53.08211 | -8.37272 | 37987 ft | 469 kts | 283° |
| 2026-05-07 22:06 | 53.09978 | -8.47719 | 37986 ft | 469 kts | 283° |
| 2026-05-07 22:06 | 53.11739 | -8.58194 | 37982 ft | 469 kts | 283° |
| 2026-05-07 22:07 | 53.13489 | -8.68663 | 37991 ft | 469 kts | 283° |
| 2026-05-07 22:07 | 53.15218 | -8.79073 | 37985 ft | 469 kts | 283° |
| 2026-05-07 22:08 | 53.16948 | -8.89550 | 37982 ft | 468 kts | 283° |
| 2026-05-07 22:08 | 53.18666 | -9.00018 | 37977 ft | 468 kts | 283° |
| 2026-05-07 22:09 | 53.20375 | -9.10498 | 37981 ft | 467 kts | 283° |
| 2026-05-07 22:09 | 53.22059 | -9.20888 | 37986 ft | 466 kts | 283° |
| 2026-05-07 22:10 | 53.23752 | -9.31401 | 37983 ft | 466 kts | 283° |
| 2026-05-07 22:10 | 53.25418 | -9.41806 | 37985 ft | 466 kts | 282° |
| 2026-05-07 22:11 | 53.27083 | -9.52274 | 37988 ft | 466 kts | 282° |
| 2026-05-07 22:11 | 53.28735 | -9.62727 | 37989 ft | 465 kts | 282° |
| 2026-05-07 22:12 | 53.30380 | -9.73201 | 37980 ft | 465 kts | 282° |
| 2026-05-07 22:12 | 53.32014 | -9.83669 | 37992 ft | 465 kts | 282° |
| 2026-05-07 22:13 | 53.33631 | -9.94096 | 37975 ft | 465 kts | 282° |
| 2026-05-07 22:13 | 53.35247 | -10.04577 | 37991 ft | 465 kts | 282° |
| 2026-05-07 22:14 | 53.36854 | -10.15073 | 37997 ft | 465 kts | 282° |
| 2026-05-07 22:14 | 53.38453 | -10.25584 | 37995 ft | 464 kts | 282° |
| 2026-05-07 22:15 | 53.40029 | -10.36013 | 37986 ft | 464 kts | 282° |
| 2026-05-07 22:15 | 53.41603 | -10.46495 | 37986 ft | 464 kts | 282° |
| 2026-05-07 22:16 | 53.43170 | -10.57005 | 37992 ft | 464 kts | 282° |
| 2026-05-07 22:16 | 53.44728 | -10.67516 | 38009 ft | 464 kts | 282° |
| 2026-05-07 22:17 | 53.46276 | -10.78034 | 37998 ft | 464 kts | 282° |
| 2026-05-07 22:17 | 53.47814 | -10.88555 | 37995 ft | 464 kts | 282° |
| 2026-05-07 22:18 | 53.50097 | -11.04301 | 37994 ft | 465 kts | 282° |
| 2026-05-07 22:19 | 53.51615 | -11.14867 | 38000 ft | 465 kts | 282° |
| 2026-05-07 22:19 | 53.53127 | -11.25452 | 37999 ft | 465 kts | 282° |
| 2026-05-07 22:20 | 53.54619 | -11.35981 | 38001 ft | 465 kts | 281° |
| 2026-05-07 22:20 | 53.56109 | -11.46558 | 37999 ft | 465 kts | 281° |
| 2026-05-07 22:21 | 53.57590 | -11.57152 | 38006 ft | 465 kts | 281° |
| 2026-05-07 22:21 | 53.59064 | -11.67770 | 38000 ft | 465 kts | 281° |
| 2026-05-07 22:22 | 53.60526 | -11.78374 | 38011 ft | 465 kts | 281° |
| 2026-05-07 22:22 | 53.61983 | -11.89019 | 38007 ft | 465 kts | 281° |
| 2026-05-07 22:23 | 53.63419 | -11.99588 | 38009 ft | 465 kts | 281° |
| 2026-05-07 22:23 | 53.64854 | -12.10225 | 38008 ft | 465 kts | 281° |
| 2026-05-07 22:24 | 53.66280 | -12.20868 | 38007 ft | 465 kts | 281° |
| 2026-05-07 22:24 | 53.67696 | -12.31516 | 38012 ft | 465 kts | 281° |
| 2026-05-07 22:25 | 53.69103 | -12.42174 | 38018 ft | 465 kts | 281° |
| 2026-05-07 22:25 | 53.70493 | -12.52790 | 38013 ft | 465 kts | 281° |
| 2026-05-07 22:26 | 53.71882 | -12.63466 | 38019 ft | 465 kts | 281° |
| 2026-05-07 22:26 | 53.73260 | -12.74145 | 38017 ft | 466 kts | 281° |
| 2026-05-07 22:27 | 53.74629 | -12.84832 | 38022 ft | 466 kts | 281° |
| 2026-05-07 22:27 | 53.75990 | -12.95535 | 38024 ft | 466 kts | 281° |
| 2026-05-07 22:28 | 53.77343 | -13.06264 | 38026 ft | 465 kts | 280° |
| 2026-05-07 22:28 | 53.78677 | -13.16915 | 38021 ft | 465 kts | 280° |
| 2026-05-07 22:29 | 53.80009 | -13.27640 | 38030 ft | 465 kts | 280° |
| 2026-05-07 22:29 | 53.81331 | -13.38364 | 38027 ft | 465 kts | 280° |
| 2026-05-07 22:30 | 53.82641 | -13.49084 | 38030 ft | 465 kts | 280° |
| 2026-05-07 22:30 | 53.83944 | -13.59825 | 38032 ft | 465 kts | 280° |
| 2026-05-07 22:31 | 53.85225 | -13.70471 | 38035 ft | 464 kts | 280° |
| 2026-05-07 22:31 | 53.86508 | -13.81216 | 38033 ft | 464 kts | 280° |
| 2026-05-07 22:32 | 53.87779 | -13.91949 | 38038 ft | 464 kts | 279° |
| 2026-05-07 22:32 | 53.89042 | -14.02703 | 38035 ft | 464 kts | 279° |
| 2026-05-07 22:33 | 53.90288 | -14.13399 | 38042 ft | 464 kts | 279° |
| 2026-05-07 22:33 | 53.91531 | -14.24155 | 38042 ft | 464 kts | 279° |
| 2026-05-07 22:34 | 53.92764 | -14.34920 | 38044 ft | 465 kts | 279° |
| 2026-05-07 22:34 | 53.93981 | -14.45631 | 38039 ft | 465 kts | 279° |
| 2026-05-07 22:35 | 53.95195 | -14.56408 | 38044 ft | 465 kts | 279° |
| 2026-05-07 22:35 | 53.96395 | -14.67154 | 38045 ft | 465 kts | 279° |
| 2026-05-07 22:36 | 53.97589 | -14.77940 | 38052 ft | 465 kts | 279° |
| 2026-05-07 22:36 | 53.98776 | -14.88734 | 38049 ft | 465 kts | 279° |
| 2026-05-07 22:37 | 53.99908 | -14.99538 | 38057 ft | 464 kts | 276° |
| 2026-05-07 22:37 | 54.00290 | -15.10465 | 38057 ft | 463 kts | 270° |
| 2026-05-07 22:38 | 54.00458 | -15.21405 | 38058 ft | 463 kts | 270° |
| 2026-05-07 22:38 | 54.00630 | -15.32367 | 38057 ft | 463 kts | 270° |
| 2026-05-07 22:39 | 54.00814 | -15.43312 | 38063 ft | 463 kts | 270° |
| 2026-05-07 22:39 | 54.00997 | -15.54248 | 38062 ft | 463 kts | 270° |
| 2026-05-07 22:40 | 54.01172 | -15.65208 | 38062 ft | 463 kts | 270° |
| 2026-05-07 22:40 | 54.01335 | -15.76103 | 38077 ft | 463 kts | 270° |
| 2026-05-07 22:41 | 54.01488 | -15.87052 | 38072 ft | 463 kts | 270° |
| 2026-05-07 22:41 | 54.01632 | -15.98011 | 38075 ft | 463 kts | 270° |
| 2026-05-07 22:41 | 54.01699 | -16.03520 | 38207 ft | 465 kts | 270° |
| 2026-05-07 22:42 | 54.01765 | -16.09035 | 38132 ft | 467 kts | 270° |
| 2026-05-07 22:42 | 54.01889 | -16.20052 | 38080 ft | 469 kts | 270° |
| 2026-05-07 22:43 | 54.02003 | -16.31148 | 38080 ft | 469 kts | 270° |
| 2026-05-07 22:43 | 54.02108 | -16.42253 | 38076 ft | 469 kts | 270° |
| 2026-05-07 22:44 | 54.02202 | -16.53363 | 38081 ft | 469 kts | 270° |
| 2026-05-07 22:44 | 54.02286 | -16.64468 | 38083 ft | 469 kts | 270° |
| 2026-05-07 22:45 | 54.02360 | -16.75515 | 38087 ft | 469 kts | 270° |
| 2026-05-07 22:45 | 54.02423 | -16.86640 | 38090 ft | 469 kts | 270° |
| 2026-05-07 22:46 | 54.02477 | -16.97726 | 38088 ft | 469 kts | 270° |
| 2026-05-07 22:46 | 54.02519 | -17.08659 | 38094 ft | 469 kts | 270° |
| 2026-05-07 22:47 | 54.02552 | -17.19763 | 38091 ft | 469 kts | 270° |
| 2026-05-07 22:47 | 54.02575 | -17.30849 | 38092 ft | 470 kts | 270° |
| 2026-05-07 22:48 | 54.02587 | -17.41977 | 38097 ft | 470 kts | 270° |
| 2026-05-07 22:48 | 54.02590 | -17.53086 | 38096 ft | 470 kts | 270° |
| 2026-05-07 22:49 | 54.02582 | -17.64185 | 38100 ft | 470 kts | 269° |
| 2026-05-07 22:49 | 54.02568 | -17.73372 | 38106 ft | 470 kts | 269° |
| 2026-05-07 22:50 | 54.02535 | -17.86336 | 38105 ft | 470 kts | 269° |
| 2026-05-07 22:50 | 54.02497 | -17.97445 | 38106 ft | 471 kts | 269° |
| 2026-05-07 22:51 | 54.02457 | -18.06788 | 38106 ft | 471 kts | 269° |
| 2026-05-07 22:51 | 54.02399 | -18.17879 | 38109 ft | 471 kts | 269° |
| 2026-05-07 22:52 | 54.02331 | -18.29087 | 38109 ft | 472 kts | 269° |
| 2026-05-07 22:52 | 54.02253 | -18.40207 | 38116 ft | 472 kts | 269° |
| 2026-05-07 22:53 | 54.02164 | -18.51354 | 38113 ft | 472 kts | 269° |
| 2026-05-07 22:53 | 54.02065 | -18.62532 | 38116 ft | 472 kts | 269° |
| 2026-05-07 22:54 | 54.01956 | -18.73696 | 38116 ft | 472 kts | 269° |
| 2026-05-07 22:54 | 54.01837 | -18.84823 | 38119 ft | 472 kts | 269° |
| 2026-05-07 22:55 | 54.01707 | -18.95991 | 38121 ft | 472 kts | 269° |
| 2026-05-07 22:55 | 54.01565 | -19.07218 | 38123 ft | 472 kts | 269° |
| 2026-05-07 22:56 | 54.01415 | -19.18376 | 38124 ft | 473 kts | 269° |
| 2026-05-07 22:56 | 54.01253 | -19.29576 | 38128 ft | 473 kts | 269° |
| 2026-05-07 22:57 | 54.01082 | -19.40696 | 38125 ft | 473 kts | 269° |
| 2026-05-07 22:57 | 54.00900 | -19.51910 | 38129 ft | 473 kts | 269° |
| 2026-05-07 22:58 | 54.00709 | -19.62974 | 38138 ft | 473 kts | 269° |
| 2026-05-07 22:58 | 54.00506 | -19.74187 | 38136 ft | 473 kts | 269° |
| 2026-05-07 22:59 | 54.00294 | -19.85337 | 38138 ft | 473 kts | 269° |
| 2026-05-07 22:59 | 54.00072 | -19.96550 | 38138 ft | 473 kts | 269° |
| 2026-05-07 23:00 | 53.99627 | -20.07682 | 38145 ft | 474 kts | 265° |
| 2026-05-07 23:00 | 53.98960 | -20.18853 | 38137 ft | 474 kts | 265° |
| 2026-05-07 23:01 | 53.98272 | -20.30018 | 38147 ft | 474 kts | 265° |
| 2026-05-07 23:01 | 53.97596 | -20.41139 | 38156 ft | 474 kts | 265° |
| 2026-05-07 23:02 | 53.96925 | -20.52202 | 38146 ft | 475 kts | 265° |
| 2026-05-07 23:02 | 53.96242 | -20.63348 | 38155 ft | 475 kts | 265° |
| 2026-05-07 23:03 | 53.95544 | -20.74541 | 38156 ft | 475 kts | 265° |
| 2026-05-07 23:03 | 53.94838 | -20.85689 | 38156 ft | 476 kts | 265° |
| 2026-05-07 23:04 | 53.94120 | -20.96856 | 38156 ft | 476 kts | 265° |
| 2026-05-07 23:04 | 53.93390 | -21.08041 | 38160 ft | 476 kts | 265° |
| 2026-05-07 23:05 | 53.92652 | -21.19197 | 38161 ft | 477 kts | 265° |
| 2026-05-07 23:05 | 53.91904 | -21.30340 | 38165 ft | 477 kts | 265° |
| 2026-05-07 23:06 | 53.91144 | -21.41501 | 38168 ft | 477 kts | 265° |
| 2026-05-07 23:06 | 53.90372 | -21.52676 | 38173 ft | 478 kts | 265° |
| 2026-05-07 23:07 | 53.89586 | -21.63904 | 38172 ft | 478 kts | 265° |
| 2026-05-07 23:07 | 53.88790 | -21.75110 | 38175 ft | 478 kts | 265° |
| 2026-05-07 23:08 | 53.87992 | -21.86214 | 38175 ft | 478 kts | 265° |
| 2026-05-07 23:08 | 53.87179 | -21.97370 | 38179 ft | 478 kts | 265° |
| 2026-05-07 23:09 | 53.86346 | -22.08649 | 38181 ft | 478 kts | 265° |
| 2026-05-07 23:09 | 53.85511 | -22.19814 | 38174 ft | 478 kts | 265° |
| 2026-05-07 23:10 | 53.84665 | -22.30983 | 38181 ft | 478 kts | 265° |
| 2026-05-07 23:10 | 53.83813 | -22.42082 | 38184 ft | 478 kts | 265° |
| 2026-05-07 23:11 | 53.82945 | -22.53256 | 38189 ft | 478 kts | 265° |
| 2026-05-07 23:11 | 53.82066 | -22.64438 | 38195 ft | 478 kts | 265° |
| 2026-05-07 23:12 | 53.81177 | -22.75605 | 38195 ft | 478 kts | 265° |
| 2026-05-07 23:12 | 53.80285 | -22.86686 | 38194 ft | 478 kts | 265° |
| 2026-05-07 23:13 | 53.79378 | -22.97808 | 38198 ft | 478 kts | 265° |
| 2026-05-07 23:13 | 53.78455 | -23.09001 | 38195 ft | 479 kts | 265° |
| 2026-05-07 23:14 | 53.77527 | -23.20121 | 38213 ft | 478 kts | 265° |
| 2026-05-07 23:14 | 53.76584 | -23.31290 | 38217 ft | 478 kts | 265° |
| 2026-05-07 23:15 | 53.75637 | -23.42392 | 38211 ft | 479 kts | 265° |
| 2026-05-07 23:15 | 53.74677 | -23.53505 | 38212 ft | 479 kts | 265° |
| 2026-05-07 23:16 | 53.73709 | -23.64591 | 38217 ft | 479 kts | 265° |
| 2026-05-07 23:16 | 53.72720 | -23.75803 | 38216 ft | 479 kts | 265° |
| 2026-05-07 23:17 | 53.71730 | -23.86894 | 38220 ft | 479 kts | 265° |
| 2026-05-07 23:17 | 53.70731 | -23.97970 | 38221 ft | 479 kts | 264° |
| 2026-05-07 23:18 | 53.69716 | -24.09103 | 38224 ft | 479 kts | 264° |
| 2026-05-07 23:18 | 53.68694 | -24.20193 | 38228 ft | 479 kts | 264° |
| 2026-05-07 23:19 | 53.67656 | -24.31338 | 38229 ft | 479 kts | 264° |
| 2026-05-07 23:19 | 53.66620 | -24.42350 | 38234 ft | 479 kts | 264° |
| 2026-05-07 23:20 | 53.65569 | -24.53414 | 38227 ft | 479 kts | 264° |
| 2026-05-07 23:20 | 53.64502 | -24.64521 | 38239 ft | 479 kts | 264° |
| 2026-05-07 23:21 | 53.63431 | -24.75569 | 38241 ft | 479 kts | 264° |
| 2026-05-07 23:21 | 53.62344 | -24.86660 | 38241 ft | 479 kts | 264° |
| 2026-05-07 23:22 | 53.61251 | -24.97713 | 38248 ft | 479 kts | 264° |
| 2026-05-07 23:22 | 53.60146 | -25.08766 | 38248 ft | 479 kts | 264° |
| 2026-05-07 23:23 | 53.59029 | -25.19838 | 38250 ft | 479 kts | 264° |
| 2026-05-07 23:23 | 53.57901 | -25.30911 | 38253 ft | 479 kts | 264° |
| 2026-05-07 23:24 | 53.56769 | -25.41926 | 38255 ft | 480 kts | 264° |
| 2026-05-07 23:24 | 53.55622 | -25.52975 | 38255 ft | 480 kts | 264° |
| 2026-05-07 23:25 | 53.54464 | -25.64024 | 38248 ft | 480 kts | 264° |
| 2026-05-07 23:25 | 53.53290 | -25.75117 | 38267 ft | 480 kts | 264° |
| 2026-05-07 23:26 | 53.52114 | -25.86140 | 38269 ft | 480 kts | 264° |
| 2026-05-07 23:26 | 53.50923 | -25.97193 | 38263 ft | 480 kts | 264° |
| 2026-05-07 23:27 | 53.49119 | -26.13747 | 38273 ft | 480 kts | 264° |
| 2026-05-07 23:27 | 53.47915 | -26.24674 | 38263 ft | 480 kts | 264° |
| 2026-05-07 23:28 | 53.46682 | -26.35767 | 38270 ft | 480 kts | 264° |
| 2026-05-07 23:28 | 53.45445 | -26.46790 | 38278 ft | 480 kts | 264° |
| 2026-05-07 23:29 | 53.44204 | -26.57763 | 38277 ft | 480 kts | 264° |
| 2026-05-07 23:29 | 53.42946 | -26.68784 | 38282 ft | 480 kts | 264° |
| 2026-05-07 23:30 | 53.41688 | -26.79716 | 38283 ft | 480 kts | 264° |
| 2026-05-07 23:30 | 53.40414 | -26.90689 | 38286 ft | 480 kts | 264° |
| 2026-05-07 23:31 | 53.39119 | -27.01744 | 38293 ft | 480 kts | 264° |
| 2026-05-07 23:31 | 53.37831 | -27.12652 | 38293 ft | 480 kts | 264° |
| 2026-05-07 23:32 | 53.36528 | -27.23596 | 38295 ft | 480 kts | 264° |
| 2026-05-07 23:32 | 53.35211 | -27.34568 | 38299 ft | 480 kts | 264° |
| 2026-05-07 23:33 | 53.33883 | -27.45537 | 38299 ft | 480 kts | 264° |
| 2026-05-07 23:33 | 53.32548 | -27.56473 | 38297 ft | 479 kts | 264° |
| 2026-05-07 23:34 | 53.31201 | -27.67426 | 38304 ft | 479 kts | 264° |
| 2026-05-07 23:34 | 53.29852 | -27.78303 | 38298 ft | 479 kts | 264° |
| 2026-05-07 23:35 | 53.28490 | -27.89197 | 38303 ft | 478 kts | 264° |
| 2026-05-07 23:35 | 53.27121 | -28.00064 | 38306 ft | 478 kts | 264° |
| 2026-05-07 23:36 | 53.25740 | -28.10942 | 38302 ft | 478 kts | 264° |
| 2026-05-07 23:36 | 53.24366 | -28.21673 | 38316 ft | 478 kts | 264° |
| 2026-05-07 23:37 | 53.22966 | -28.32532 | 38307 ft | 477 kts | 264° |
| 2026-05-07 23:37 | 53.21560 | -28.43347 | 38312 ft | 477 kts | 264° |
| 2026-05-07 23:38 | 53.20146 | -28.54151 | 38314 ft | 476 kts | 264° |
| 2026-05-07 23:38 | 53.18956 | -28.63177 | 38318 ft | 476 kts | 264° |
| 2026-05-07 23:39 | 53.17521 | -28.73982 | 38320 ft | 476 kts | 264° |
| 2026-05-07 23:39 | 53.16091 | -28.84676 | 38318 ft | 475 kts | 264° |
| 2026-05-07 23:40 | 53.14647 | -28.95395 | 38321 ft | 475 kts | 264° |
| 2026-05-07 23:40 | 53.13187 | -29.06155 | 38324 ft | 475 kts | 264° |
| 2026-05-07 23:41 | 53.11723 | -29.16858 | 38329 ft | 474 kts | 264° |
| 2026-05-07 23:41 | 53.10253 | -29.27536 | 38330 ft | 474 kts | 264° |
| 2026-05-07 23:42 | 53.08769 | -29.38241 | 38324 ft | 473 kts | 264° |
| 2026-05-07 23:42 | 53.07284 | -29.48871 | 38341 ft | 473 kts | 264° |
| 2026-05-07 23:43 | 53.05794 | -29.59464 | 38332 ft | 472 kts | 264° |
| 2026-05-07 23:43 | 53.04294 | -29.70054 | 38335 ft | 471 kts | 264° |
| 2026-05-07 23:44 | 53.02782 | -29.80663 | 38340 ft | 470 kts | 264° |
| 2026-05-07 23:44 | 53.01263 | -29.91258 | 38339 ft | 470 kts | 264° |
| 2026-05-07 23:45 | 52.99783 | -30.01802 | 38344 ft | 466 kts | 267° |
| 2026-05-07 23:45 | 52.98658 | -30.12277 | 38343 ft | 464 kts | 268° |
| 2026-05-07 23:46 | 52.97579 | -30.22815 | 38344 ft | 463 kts | 268° |
| 2026-05-07 23:46 | 52.96478 | -30.33376 | 38349 ft | 463 kts | 268° |
| 2026-05-07 23:47 | 52.95354 | -30.43928 | 38354 ft | 463 kts | 268° |
| 2026-05-07 23:47 | 52.94216 | -30.54455 | 38356 ft | 463 kts | 267° |
| 2026-05-07 23:48 | 52.93069 | -30.64968 | 38356 ft | 463 kts | 267° |
| 2026-05-07 23:48 | 52.91918 | -30.75433 | 38361 ft | 463 kts | 267° |
| 2026-05-07 23:49 | 52.90753 | -30.85942 | 38362 ft | 462 kts | 267° |
| 2026-05-07 23:49 | 52.89585 | -30.96390 | 38361 ft | 462 kts | 267° |
| 2026-05-07 23:50 | 52.88408 | -31.06820 | 38356 ft | 462 kts | 267° |
| 2026-05-07 23:50 | 52.87221 | -31.17263 | 38358 ft | 461 kts | 267° |
| 2026-05-07 23:51 | 52.86029 | -31.27660 | 38362 ft | 460 kts | 267° |
| 2026-05-07 23:51 | 52.84828 | -31.38053 | 38353 ft | 460 kts | 267° |
| 2026-05-07 23:52 | 52.83626 | -31.48365 | 38369 ft | 459 kts | 267° |
| 2026-05-07 23:52 | 52.82406 | -31.58752 | 38363 ft | 458 kts | 267° |
| 2026-05-07 23:53 | 52.81181 | -31.69106 | 38366 ft | 458 kts | 268° |
| 2026-05-07 23:53 | 52.79949 | -31.79428 | 38367 ft | 457 kts | 268° |
| 2026-05-07 23:54 | 52.78710 | -31.89731 | 38372 ft | 456 kts | 268° |
| 2026-05-07 23:54 | 52.77476 | -31.99914 | 38369 ft | 456 kts | 268° |
| 2026-05-07 23:55 | 52.76225 | -32.10159 | 38367 ft | 455 kts | 267° |
| 2026-05-07 23:55 | 52.74968 | -32.20375 | 38373 ft | 454 kts | 267° |
| 2026-05-07 23:56 | 52.73698 | -32.30620 | 38375 ft | 454 kts | 267° |
| 2026-05-07 23:56 | 52.72422 | -32.40834 | 38385 ft | 453 kts | 267° |
| 2026-05-07 23:57 | 52.71146 | -32.50977 | 38385 ft | 452 kts | 267° |
| 2026-05-07 23:57 | 52.69859 | -32.61131 | 38380 ft | 452 kts | 267° |
| 2026-05-07 23:58 | 52.68568 | -32.71239 | 38379 ft | 451 kts | 267° |
| 2026-05-07 23:58 | 52.67265 | -32.81373 | 38379 ft | 450 kts | 267° |
| 2026-05-07 23:59 | 52.65967 | -32.91393 | 38383 ft | 450 kts | 267° |
| 2026-05-07 23:59 | 52.64656 | -33.01441 | 38386 ft | 449 kts | 267° |
| 2026-05-08 00:00 | 52.63343 | -33.11439 | 38383 ft | 449 kts | 267° |
| 2026-05-08 00:00 | 52.62011 | -33.21504 | 38381 ft | 448 kts | 267° |
| 2026-05-08 00:01 | 52.60679 | -33.31498 | 38385 ft | 447 kts | 267° |
| 2026-05-08 00:01 | 52.59337 | -33.41502 | 38385 ft | 447 kts | 266° |
| 2026-05-08 00:02 | 52.57988 | -33.51487 | 38385 ft | 447 kts | 266° |
| 2026-05-08 00:02 | 52.56632 | -33.61462 | 38384 ft | 446 kts | 266° |
| 2026-05-08 00:03 | 52.55280 | -33.71329 | 38387 ft | 446 kts | 266° |
| 2026-05-08 00:03 | 52.53901 | -33.81337 | 38387 ft | 445 kts | 266° |
| 2026-05-08 00:04 | 52.52526 | -33.91243 | 38388 ft | 445 kts | 266° |
| 2026-05-08 00:04 | 52.51157 | -34.01042 | 38382 ft | 444 kts | 266° |
| 2026-05-08 00:05 | 52.49765 | -34.10941 | 38390 ft | 444 kts | 266° |
| 2026-05-08 00:05 | 52.48372 | -34.20783 | 38386 ft | 443 kts | 266° |
| 2026-05-08 00:06 | 52.46972 | -34.30614 | 38386 ft | 442 kts | 266° |
| 2026-05-08 00:06 | 52.45559 | -34.40466 | 38381 ft | 442 kts | 265° |
| 2026-05-08 00:07 | 52.44146 | -34.50256 | 38389 ft | 441 kts | 265° |
| 2026-05-08 00:07 | 52.42736 | -34.59970 | 38386 ft | 440 kts | 265° |
| 2026-05-08 00:08 | 52.41309 | -34.69733 | 38390 ft | 439 kts | 265° |
| 2026-05-08 00:08 | 52.39886 | -34.79412 | 38380 ft | 438 kts | 265° |
| 2026-05-08 00:09 | 52.38449 | -34.89120 | 38377 ft | 438 kts | 265° |
| 2026-05-08 00:09 | 52.37013 | -34.98773 | 38383 ft | 437 kts | 265° |
| 2026-05-08 00:10 | 52.35566 | -35.08435 | 38383 ft | 437 kts | 265° |
| 2026-05-08 00:10 | 52.34110 | -35.18098 | 38389 ft | 437 kts | 265° |
| 2026-05-08 00:11 | 52.32645 | -35.27759 | 38386 ft | 437 kts | 265° |
| 2026-05-08 00:11 | 52.31185 | -35.37335 | 38384 ft | 437 kts | 264° |
| 2026-05-08 00:12 | 52.29695 | -35.47041 | 38382 ft | 436 kts | 264° |
| 2026-05-08 00:12 | 52.28224 | -35.56576 | 38378 ft | 436 kts | 264° |
| 2026-05-08 00:13 | 52.26733 | -35.66178 | 38396 ft | 436 kts | 264° |
| 2026-05-08 00:13 | 52.25233 | -35.75779 | 38396 ft | 436 kts | 264° |
| 2026-05-08 00:14 | 52.23727 | -35.85366 | 38386 ft | 436 kts | 264° |
| 2026-05-08 00:14 | 52.22210 | -35.94964 | 38381 ft | 436 kts | 264° |
| 2026-05-08 00:15 | 52.20693 | -36.04509 | 38388 ft | 435 kts | 264° |
| 2026-05-08 00:15 | 52.19165 | -36.14067 | 38384 ft | 435 kts | 263° |
| 2026-05-08 00:16 | 52.17643 | -36.23534 | 38384 ft | 435 kts | 263° |
| 2026-05-08 00:16 | 52.16104 | -36.33058 | 38378 ft | 435 kts | 263° |
| 2026-05-08 00:17 | 52.14563 | -36.42537 | 38391 ft | 435 kts | 263° |
| 2026-05-08 00:17 | 52.13005 | -36.52064 | 38390 ft | 435 kts | 263° |
| 2026-05-08 00:18 | 52.11444 | -36.61559 | 38388 ft | 435 kts | 263° |
| 2026-05-08 00:18 | 52.09873 | -36.71061 | 38386 ft | 435 kts | 263° |
| 2026-05-08 00:19 | 52.08296 | -36.80541 | 38385 ft | 436 kts | 263° |
| 2026-05-08 00:19 | 52.06692 | -36.90136 | 38386 ft | 436 kts | 262° |
| 2026-05-08 00:20 | 52.05097 | -36.99626 | 38386 ft | 436 kts | 262° |
| 2026-05-08 00:20 | 52.03502 | -37.09057 | 38380 ft | 436 kts | 262° |
| 2026-05-08 00:21 | 52.01881 | -37.18597 | 38382 ft | 436 kts | 262° |
| 2026-05-08 00:21 | 52.00257 | -37.28096 | 38377 ft | 436 kts | 262° |
| 2026-05-08 00:22 | 51.98642 | -37.37499 | 38381 ft | 436 kts | 261° |
| 2026-05-08 00:22 | 51.97005 | -37.46970 | 38372 ft | 436 kts | 261° |
| 2026-05-08 00:23 | 51.95361 | -37.56439 | 38373 ft | 435 kts | 261° |
| 2026-05-08 00:23 | 51.93716 | -37.65860 | 38369 ft | 435 kts | 261° |
| 2026-05-08 00:24 | 51.92055 | -37.75322 | 38384 ft | 435 kts | 261° |
| 2026-05-08 00:24 | 51.90393 | -37.84739 | 38382 ft | 435 kts | 261° |
| 2026-05-08 00:25 | 51.88739 | -37.94066 | 38370 ft | 435 kts | 260° |
| 2026-05-08 00:25 | 51.87062 | -38.03470 | 38371 ft | 434 kts | 260° |
| 2026-05-08 00:26 | 51.85661 | -38.11289 | 38373 ft | 434 kts | 260° |
| 2026-05-08 00:26 | 51.83693 | -38.22216 | 38371 ft | 434 kts | 260° |
| 2026-05-08 00:27 | 51.81994 | -38.31600 | 38370 ft | 434 kts | 259° |
| 2026-05-08 00:27 | 51.80571 | -38.39420 | 38368 ft | 435 kts | 259° |
| 2026-05-08 00:28 | 51.78856 | -38.48802 | 38365 ft | 435 kts | 259° |
| 2026-05-08 00:28 | 51.77151 | -38.58083 | 38367 ft | 435 kts | 259° |
| 2026-05-08 00:29 | 51.75423 | -38.67440 | 38364 ft | 435 kts | 259° |
| 2026-05-08 00:29 | 51.73673 | -38.76867 | 38364 ft | 435 kts | 258° |
| 2026-05-08 00:30 | 51.71948 | -38.86112 | 38363 ft | 435 kts | 258° |
| 2026-05-08 00:30 | 51.70200 | -38.95436 | 38362 ft | 435 kts | 258° |
| 2026-05-08 00:31 | 51.68433 | -39.04816 | 38353 ft | 434 kts | 258° |
| 2026-05-08 00:31 | 51.66666 | -39.14149 | 38358 ft | 434 kts | 258° |
| 2026-05-08 00:32 | 51.64914 | -39.23354 | 38355 ft | 434 kts | 257° |
| 2026-05-08 00:32 | 51.63125 | -39.32710 | 38354 ft | 433 kts | 257° |
| 2026-05-08 00:33 | 51.61362 | -39.41885 | 38350 ft | 433 kts | 257° |
| 2026-05-08 00:33 | 51.59575 | -39.51138 | 38351 ft | 433 kts | 257° |
| 2026-05-08 00:34 | 51.57783 | -39.60377 | 38346 ft | 432 kts | 257° |
| 2026-05-08 00:34 | 51.55985 | -39.69599 | 38347 ft | 432 kts | 257° |
| 2026-05-08 00:35 | 51.54173 | -39.78853 | 38340 ft | 433 kts | 256° |
| 2026-05-08 00:35 | 51.52365 | -39.88044 | 38355 ft | 433 kts | 256° |
| 2026-05-08 00:36 | 51.50542 | -39.97278 | 38355 ft | 433 kts | 257° |
| 2026-05-08 00:36 | 51.49248 | -40.06681 | 38348 ft | 430 kts | 264° |
| 2026-05-08 00:37 | 51.48289 | -40.16101 | 38338 ft | 431 kts | 264° |
| 2026-05-08 00:38 | 51.46807 | -40.30397 | 38336 ft | 432 kts | 263° |
| 2026-05-08 00:38 | 51.45804 | -40.39845 | 38327 ft | 432 kts | 263° |
| 2026-05-08 00:39 | 51.44782 | -40.49359 | 38334 ft | 433 kts | 263° |
| 2026-05-08 00:39 | 51.43760 | -40.58803 | 38328 ft | 433 kts | 263° |
| 2026-05-08 00:40 | 51.42714 | -40.68388 | 38327 ft | 433 kts | 263° |
| 2026-05-08 00:40 | 51.41668 | -40.77901 | 38326 ft | 434 kts | 262° |
| 2026-05-08 00:41 | 51.40616 | -40.87394 | 38323 ft | 434 kts | 262° |
| 2026-05-08 00:41 | 51.39551 | -40.96929 | 38322 ft | 435 kts | 262° |
| 2026-05-08 00:42 | 51.38479 | -41.06452 | 38324 ft | 435 kts | 262° |
| 2026-05-08 00:42 | 51.37403 | -41.15943 | 38321 ft | 436 kts | 262° |
| 2026-05-08 00:43 | 51.36311 | -41.25501 | 38318 ft | 436 kts | 262° |
| 2026-05-08 00:43 | 51.35210 | -41.35061 | 38316 ft | 436 kts | 262° |
| 2026-05-08 00:44 | 51.34109 | -41.44555 | 38318 ft | 436 kts | 262° |
| 2026-05-08 00:44 | 51.32992 | -41.54108 | 38315 ft | 436 kts | 261° |
| 2026-05-08 00:45 | 51.31879 | -41.63567 | 38315 ft | 436 kts | 261° |
| 2026-05-08 00:45 | 51.30741 | -41.73163 | 38312 ft | 436 kts | 261° |
| 2026-05-08 00:46 | 51.29611 | -41.82614 | 38308 ft | 436 kts | 261° |
| 2026-05-08 00:46 | 51.28467 | -41.92121 | 38309 ft | 436 kts | 261° |
| 2026-05-08 00:47 | 51.27313 | -42.01649 | 38307 ft | 436 kts | 261° |
| 2026-05-08 00:47 | 51.26154 | -42.11137 | 38308 ft | 436 kts | 260° |
| 2026-05-08 00:48 | 51.24986 | -42.20642 | 38306 ft | 436 kts | 260° |
| 2026-05-08 00:48 | 51.23820 | -42.30056 | 38306 ft | 436 kts | 260° |
| 2026-05-08 00:49 | 51.22630 | -42.39596 | 38300 ft | 436 kts | 260° |
| 2026-05-08 00:49 | 51.21435 | -42.49113 | 38304 ft | 436 kts | 259° |
| 2026-05-08 00:50 | 51.20244 | -42.58537 | 38301 ft | 436 kts | 259° |
| 2026-05-08 00:50 | 51.19031 | -42.68065 | 38298 ft | 436 kts | 259° |
| 2026-05-08 00:51 | 51.17819 | -42.77517 | 38297 ft | 437 kts | 259° |
| 2026-05-08 00:51 | 51.16593 | -42.87015 | 38292 ft | 437 kts | 259° |
| 2026-05-08 00:52 | 51.15367 | -42.96453 | 38294 ft | 437 kts | 259° |
| 2026-05-08 00:52 | 51.14127 | -43.05926 | 38292 ft | 437 kts | 259° |
| 2026-05-08 00:53 | 51.12879 | -43.15405 | 38291 ft | 437 kts | 258° |
| 2026-05-08 00:53 | 51.11625 | -43.24864 | 38294 ft | 437 kts | 258° |
| 2026-05-08 00:54 | 51.10370 | -43.34265 | 38291 ft | 437 kts | 258° |
| 2026-05-08 00:54 | 51.09103 | -43.43698 | 38291 ft | 437 kts | 258° |
| 2026-05-08 00:55 | 51.07827 | -43.53133 | 38290 ft | 436 kts | 258° |
| 2026-05-08 00:55 | 51.06547 | -43.62543 | 38294 ft | 436 kts | 258° |
| 2026-05-08 00:56 | 51.05255 | -43.71974 | 38291 ft | 436 kts | 257° |
| 2026-05-08 00:56 | 51.03957 | -43.81394 | 38290 ft | 436 kts | 257° |
| 2026-05-08 00:57 | 51.02650 | -43.90815 | 38288 ft | 436 kts | 257° |
| 2026-05-08 00:57 | 51.01337 | -44.00218 | 38291 ft | 436 kts | 257° |
| 2026-05-08 00:58 | 51.00020 | -44.09593 | 38290 ft | 436 kts | 257° |
| 2026-05-08 00:58 | 50.98693 | -44.18977 | 38293 ft | 436 kts | 257° |
| 2026-05-08 00:59 | 50.97364 | -44.28321 | 38294 ft | 436 kts | 256° |
| 2026-05-08 00:59 | 50.96022 | -44.37694 | 38291 ft | 436 kts | 256° |
| 2026-05-08 01:00 | 50.94676 | -44.47039 | 38289 ft | 436 kts | 256° |
| 2026-05-08 01:00 | 50.93321 | -44.56390 | 38287 ft | 435 kts | 256° |
| 2026-05-08 01:01 | 50.91956 | -44.65760 | 38293 ft | 435 kts | 256° |
| 2026-05-08 01:01 | 50.90591 | -44.75061 | 38291 ft | 435 kts | 256° |
| 2026-05-08 01:02 | 50.89213 | -44.84403 | 38289 ft | 435 kts | 256° |
| 2026-05-08 01:02 | 50.87824 | -44.93762 | 38288 ft | 435 kts | 255° |
| 2026-05-08 01:03 | 50.86432 | -45.03077 | 38292 ft | 435 kts | 255° |
| 2026-05-08 01:03 | 50.85033 | -45.12391 | 38287 ft | 435 kts | 255° |
| 2026-05-08 01:04 | 50.83629 | -45.21686 | 38289 ft | 434 kts | 255° |
| 2026-05-08 01:04 | 50.82223 | -45.30938 | 38290 ft | 434 kts | 255° |
| 2026-05-08 01:05 | 50.80807 | -45.40201 | 38286 ft | 434 kts | 255° |
| 2026-05-08 01:05 | 50.79391 | -45.49411 | 38293 ft | 433 kts | 255° |
| 2026-05-08 01:06 | 50.77954 | -45.58703 | 38289 ft | 433 kts | 255° |
| 2026-05-08 01:06 | 50.76516 | -45.67949 | 38289 ft | 432 kts | 255° |
| 2026-05-08 01:07 | 50.75079 | -45.77139 | 38289 ft | 431 kts | 254° |
| 2026-05-08 01:07 | 50.73612 | -45.86461 | 38286 ft | 431 kts | 254° |
| 2026-05-08 01:08 | 50.72162 | -45.95628 | 38284 ft | 430 kts | 254° |
| 2026-05-08 01:08 | 50.70715 | -46.04732 | 38286 ft | 430 kts | 254° |
| 2026-05-08 01:09 | 50.69253 | -46.13873 | 38277 ft | 429 kts | 254° |
| 2026-05-08 01:09 | 50.67786 | -46.22994 | 38282 ft | 428 kts | 254° |
| 2026-05-08 01:10 | 50.66315 | -46.32090 | 38273 ft | 428 kts | 254° |
| 2026-05-08 01:10 | 50.64839 | -46.41172 | 38274 ft | 427 kts | 254° |
| 2026-05-08 01:11 | 50.63357 | -46.50239 | 38274 ft | 427 kts | 254° |
| 2026-05-08 01:11 | 50.61870 | -46.59286 | 38274 ft | 426 kts | 254° |
| 2026-05-08 01:12 | 50.60385 | -46.68274 | 38267 ft | 426 kts | 254° |
| 2026-05-08 01:12 | 50.58886 | -46.77299 | 38265 ft | 426 kts | 254° |
| 2026-05-08 01:13 | 50.57381 | -46.86311 | 38261 ft | 426 kts | 254° |
| 2026-05-08 01:13 | 50.55871 | -46.95312 | 38255 ft | 426 kts | 253° |
| 2026-05-08 01:14 | 50.54351 | -47.04318 | 38255 ft | 426 kts | 253° |
| 2026-05-08 01:14 | 50.52825 | -47.13316 | 38244 ft | 427 kts | 253° |
| 2026-05-08 01:15 | 50.51289 | -47.22325 | 38242 ft | 427 kts | 253° |
| 2026-05-08 01:15 | 50.49744 | -47.31339 | 38236 ft | 428 kts | 253° |
| 2026-05-08 01:16 | 50.48199 | -47.40308 | 38227 ft | 428 kts | 253° |
| 2026-05-08 01:16 | 50.46635 | -47.49346 | 38224 ft | 429 kts | 253° |
| 2026-05-08 01:17 | 50.45325 | -47.56872 | 38221 ft | 429 kts | 253° |
| 2026-05-08 01:17 | 50.43746 | -47.65909 | 38219 ft | 430 kts | 253° |
| 2026-05-08 01:18 | 50.42157 | -47.74954 | 38213 ft | 430 kts | 253° |
| 2026-05-08 01:18 | 50.40557 | -47.84015 | 38207 ft | 431 kts | 253° |
| 2026-05-08 01:19 | 50.38947 | -47.93091 | 38201 ft | 432 kts | 253° |
| 2026-05-08 01:19 | 50.37340 | -48.02102 | 38196 ft | 432 kts | 253° |
| 2026-05-08 01:20 | 50.35713 | -48.11175 | 38193 ft | 433 kts | 253° |
| 2026-05-08 01:20 | 50.34079 | -48.20250 | 38192 ft | 433 kts | 253° |
| 2026-05-08 01:21 | 50.32429 | -48.29360 | 38184 ft | 434 kts | 253° |
| 2026-05-08 01:21 | 50.30777 | -48.38440 | 38185 ft | 434 kts | 253° |
| 2026-05-08 01:22 | 50.29127 | -48.47465 | 38177 ft | 434 kts | 253° |
| 2026-05-08 01:22 | 50.27459 | -48.56544 | 38176 ft | 435 kts | 253° |
| 2026-05-08 01:23 | 50.25783 | -48.65618 | 38170 ft | 435 kts | 253° |
| 2026-05-08 01:23 | 50.24099 | -48.74693 | 38166 ft | 435 kts | 253° |
| 2026-05-08 01:24 | 50.22408 | -48.83760 | 38166 ft | 434 kts | 253° |
| 2026-05-08 01:24 | 50.20713 | -48.92805 | 38161 ft | 434 kts | 253° |
| 2026-05-08 01:25 | 50.19022 | -49.01786 | 38158 ft | 433 kts | 253° |
| 2026-05-08 01:25 | 50.17316 | -49.10803 | 38152 ft | 432 kts | 252° |
| 2026-05-08 01:26 | 50.15609 | -49.19782 | 38151 ft | 432 kts | 252° |
| 2026-05-08 01:26 | 50.13889 | -49.28787 | 38146 ft | 432 kts | 252° |
| 2026-05-08 01:27 | 50.12178 | -49.37700 | 38142 ft | 432 kts | 252° |
| 2026-05-08 01:27 | 50.10450 | -49.46664 | 38140 ft | 432 kts | 252° |
| 2026-05-08 01:28 | 50.08716 | -49.55613 | 38140 ft | 432 kts | 252° |
| 2026-05-08 01:28 | 50.06976 | -49.64554 | 38131 ft | 432 kts | 252° |
| 2026-05-08 01:29 | 50.05227 | -49.73500 | 38129 ft | 432 kts | 252° |
| 2026-05-08 01:29 | 50.03483 | -49.82379 | 38121 ft | 431 kts | 252° |
| 2026-05-08 01:30 | 50.01724 | -49.91302 | 38114 ft | 430 kts | 252° |
| 2026-05-08 01:30 | 49.99950 | -50.00197 | 38109 ft | 429 kts | 251° |
| 2026-05-08 01:31 | 49.97906 | -50.08930 | 38111 ft | 428 kts | 249° |
| 2026-05-08 01:31 | 49.95816 | -50.17511 | 38107 ft | 427 kts | 249° |
| 2026-05-08 01:32 | 49.93716 | -50.26142 | 38101 ft | 426 kts | 250° |
| 2026-05-08 01:32 | 49.91629 | -50.34736 | 38095 ft | 425 kts | 250° |
| 2026-05-08 01:33 | 49.89542 | -50.43315 | 38088 ft | 424 kts | 250° |
| 2026-05-08 01:33 | 49.87453 | -50.51875 | 38087 ft | 423 kts | 250° |
| 2026-05-08 01:34 | 49.85375 | -50.60355 | 38075 ft | 422 kts | 250° |
| 2026-05-08 01:34 | 49.83286 | -50.68846 | 38071 ft | 421 kts | 250° |
| 2026-05-08 01:35 | 49.81196 | -50.77311 | 38072 ft | 420 kts | 250° |
| 2026-05-08 01:35 | 49.79106 | -50.85741 | 38066 ft | 419 kts | 250° |
| 2026-05-08 01:36 | 49.77017 | -50.94136 | 38048 ft | 417 kts | 250° |
| 2026-05-08 01:36 | 49.74932 | -51.02483 | 38044 ft | 415 kts | 250° |
| 2026-05-08 01:37 | 49.72852 | -51.10782 | 38036 ft | 413 kts | 250° |
| 2026-05-08 01:37 | 49.70775 | -51.19038 | 38037 ft | 411 kts | 250° |
| 2026-05-08 01:38 | 49.68698 | -51.27262 | 38028 ft | 409 kts | 250° |
| 2026-05-08 01:38 | 49.66637 | -51.35391 | 38026 ft | 408 kts | 250° |
| 2026-05-08 01:39 | 49.64567 | -51.43531 | 38020 ft | 406 kts | 250° |
| 2026-05-08 01:39 | 49.62499 | -51.51632 | 38018 ft | 404 kts | 250° |
| 2026-05-08 01:40 | 49.60437 | -51.59680 | 38013 ft | 403 kts | 249° |
| 2026-05-08 01:40 | 49.58377 | -51.67691 | 38010 ft | 401 kts | 249° |
| 2026-05-08 01:41 | 49.56329 | -51.75632 | 38004 ft | 400 kts | 249° |
| 2026-05-08 01:41 | 49.54268 | -51.83594 | 37993 ft | 398 kts | 249° |
| 2026-05-08 01:42 | 49.52216 | -51.91498 | 37991 ft | 397 kts | 249° |
| 2026-05-08 01:42 | 49.50186 | -51.99380 | 37983 ft | 395 kts | 251° |
| 2026-05-08 01:43 | 49.48644 | -52.07419 | 37974 ft | 393 kts | 254° |
| 2026-05-08 01:43 | 49.47190 | -52.15559 | 37973 ft | 392 kts | 254° |
| 2026-05-08 01:44 | 49.45737 | -52.23633 | 37965 ft | 391 kts | 254° |
| 2026-05-08 01:44 | 49.44279 | -52.31673 | 37961 ft | 390 kts | 254° |
| 2026-05-08 01:45 | 49.42819 | -52.39683 | 37958 ft | 389 kts | 254° |
| 2026-05-08 01:45 | 49.41363 | -52.47630 | 37945 ft | 388 kts | 254° |
| 2026-05-08 01:46 | 49.39896 | -52.55600 | 37946 ft | 387 kts | 253° |
| 2026-05-08 01:46 | 49.38427 | -52.63551 | 37938 ft | 386 kts | 253° |
| 2026-05-08 01:47 | 49.36954 | -52.71487 | 37933 ft | 386 kts | 253° |
| 2026-05-08 01:47 | 49.35489 | -52.79349 | 37927 ft | 385 kts | 253° |
| 2026-05-08 01:48 | 49.33280 | -52.91136 | 37917 ft | 383 kts | 253° |
| 2026-05-08 01:48 | 49.31802 | -52.98988 | 37912 ft | 383 kts | 253° |
| 2026-05-08 01:49 | 49.30318 | -53.06831 | 37909 ft | 382 kts | 253° |
| 2026-05-08 01:49 | 49.28836 | -53.14638 | 37903 ft | 381 kts | 253° |
| 2026-05-08 01:50 | 49.27349 | -53.22434 | 37901 ft | 381 kts | 252° |
| 2026-05-08 01:50 | 49.25868 | -53.30169 | 37895 ft | 381 kts | 252° |
| 2026-05-08 01:51 | 49.24363 | -53.37994 | 37893 ft | 380 kts | 252° |
| 2026-05-08 01:51 | 49.22866 | -53.45750 | 37898 ft | 380 kts | 252° |
| 2026-05-08 01:52 | 49.21376 | -53.53436 | 37885 ft | 379 kts | 252° |
| 2026-05-08 01:52 | 49.19869 | -53.61176 | 37883 ft | 379 kts | 252° |
| 2026-05-08 01:53 | 49.18362 | -53.68888 | 37877 ft | 378 kts | 252° |
| 2026-05-08 01:53 | 49.16860 | -53.76544 | 37878 ft | 378 kts | 252° |
| 2026-05-08 01:54 | 49.15349 | -53.84215 | 37870 ft | 377 kts | 252° |
| 2026-05-08 01:54 | 49.13835 | -53.91872 | 37868 ft | 376 kts | 252° |
| 2026-05-08 01:55 | 49.12319 | -53.99507 | 37861 ft | 375 kts | 252° |
| 2026-05-08 01:55 | 49.10804 | -54.07106 | 37863 ft | 374 kts | 252° |
| 2026-05-08 01:56 | 49.09283 | -54.14707 | 37844 ft | 373 kts | 252° |
| 2026-05-08 01:56 | 49.07770 | -54.22237 | 37837 ft | 372 kts | 251° |
| 2026-05-08 01:57 | 49.06242 | -54.29818 | 37832 ft | 371 kts | 251° |
| 2026-05-08 01:57 | 49.04730 | -54.37283 | 37832 ft | 370 kts | 251° |
| 2026-05-08 01:58 | 49.03205 | -54.44788 | 37823 ft | 370 kts | 251° |
| 2026-05-08 01:58 | 49.01679 | -54.52271 | 37826 ft | 369 kts | 251° |
| 2026-05-08 01:59 | 49.00150 | -54.59738 | 37824 ft | 368 kts | 251° |
| 2026-05-08 01:59 | 48.98630 | -54.67135 | 37827 ft | 368 kts | 251° |
| 2026-05-08 02:00 | 48.97100 | -54.74553 | 37816 ft | 367 kts | 251° |
| 2026-05-08 02:00 | 48.95572 | -54.81929 | 37822 ft | 365 kts | 251° |
| 2026-05-08 02:01 | 48.94042 | -54.89292 | 37824 ft | 364 kts | 251° |
| 2026-05-08 02:01 | 48.92769 | -54.95398 | 37823 ft | 364 kts | 251° |
| 2026-05-08 02:02 | 48.90985 | -55.03920 | 37809 ft | 363 kts | 251° |
| 2026-05-08 02:02 | 48.89699 | -55.10045 | 37806 ft | 362 kts | 251° |
| 2026-05-08 02:03 | 48.88163 | -55.17335 | 37807 ft | 362 kts | 251° |
| 2026-05-08 02:03 | 48.86633 | -55.24570 | 37801 ft | 362 kts | 251° |
| 2026-05-08 02:04 | 48.85089 | -55.31844 | 37800 ft | 361 kts | 251° |
| 2026-05-08 02:04 | 48.83544 | -55.39096 | 37777 ft | 361 kts | 251° |
| 2026-05-08 02:05 | 48.82005 | -55.46297 | 37781 ft | 360 kts | 251° |
| 2026-05-08 02:05 | 48.80454 | -55.53528 | 37787 ft | 360 kts | 251° |
| 2026-05-08 02:06 | 48.78901 | -55.60738 | 37781 ft | 359 kts | 251° |
| 2026-05-08 02:06 | 48.77345 | -55.67942 | 37779 ft | 359 kts | 251° |
| 2026-05-08 02:07 | 48.75784 | -55.75143 | 37772 ft | 359 kts | 251° |
| 2026-05-08 02:07 | 48.74219 | -55.82339 | 37768 ft | 359 kts | 251° |
| 2026-05-08 02:08 | 48.72663 | -55.89464 | 37772 ft | 358 kts | 251° |
| 2026-05-08 02:08 | 48.71097 | -55.96615 | 37764 ft | 357 kts | 251° |
| 2026-05-08 02:09 | 48.69528 | -56.03752 | 37756 ft | 356 kts | 250° |
| 2026-05-08 02:09 | 48.67960 | -56.10863 | 37757 ft | 355 kts | 250° |
| 2026-05-08 02:10 | 48.66392 | -56.17948 | 37750 ft | 354 kts | 250° |
| 2026-05-08 02:10 | 48.64827 | -56.24997 | 37752 ft | 353 kts | 250° |
| 2026-05-08 02:11 | 48.63269 | -56.31986 | 37751 ft | 352 kts | 250° |
| 2026-05-08 02:11 | 48.61702 | -56.38995 | 37749 ft | 351 kts | 250° |
| 2026-05-08 02:12 | 48.60131 | -56.46000 | 37748 ft | 351 kts | 250° |
| 2026-05-08 02:12 | 48.58560 | -56.52983 | 37744 ft | 351 kts | 250° |
| 2026-05-08 02:13 | 48.56981 | -56.59974 | 37739 ft | 351 kts | 250° |
| 2026-05-08 02:13 | 48.55406 | -56.66926 | 37730 ft | 351 kts | 250° |
| 2026-05-08 02:14 | 48.53819 | -56.73911 | 37736 ft | 351 kts | 250° |
| 2026-05-08 02:14 | 48.52231 | -56.80875 | 37732 ft | 351 kts | 249° |
| 2026-05-08 02:15 | 48.50634 | -56.87853 | 37738 ft | 351 kts | 249° |
| 2026-05-08 02:15 | 48.49050 | -56.94758 | 37731 ft | 351 kts | 249° |
| 2026-05-08 02:16 | 48.47449 | -57.01712 | 37742 ft | 351 kts | 249° |
| 2026-05-08 02:16 | 48.45846 | -57.08648 | 37743 ft | 350 kts | 249° |
| 2026-05-08 02:17 | 48.44242 | -57.15571 | 37750 ft | 350 kts | 249° |
| 2026-05-08 02:17 | 48.42634 | -57.22484 | 37750 ft | 349 kts | 249° |
| 2026-05-08 02:18 | 48.41035 | -57.29341 | 37749 ft | 349 kts | 249° |
| 2026-05-08 02:18 | 48.39420 | -57.36245 | 37747 ft | 349 kts | 249° |
| 2026-05-08 02:19 | 48.37802 | -57.43136 | 37742 ft | 349 kts | 249° |
| 2026-05-08 02:19 | 48.36177 | -57.50037 | 37733 ft | 349 kts | 249° |
| 2026-05-08 02:20 | 48.34561 | -57.56881 | 37735 ft | 350 kts | 248° |
| 2026-05-08 02:20 | 48.32926 | -57.63774 | 37726 ft | 351 kts | 248° |
| 2026-05-08 02:21 | 48.31282 | -57.70691 | 37735 ft | 352 kts | 248° |
| 2026-05-08 02:21 | 48.29629 | -57.77623 | 37728 ft | 353 kts | 248° |
| 2026-05-08 02:22 | 48.27966 | -57.84573 | 37720 ft | 353 kts | 248° |
| 2026-05-08 02:22 | 48.26301 | -57.91512 | 37713 ft | 354 kts | 248° |
| 2026-05-08 02:23 | 48.24639 | -57.98417 | 37710 ft | 354 kts | 248° |
| 2026-05-08 02:23 | 48.22962 | -58.05360 | 37715 ft | 353 kts | 248° |
| 2026-05-08 02:24 | 48.21281 | -58.12299 | 37710 ft | 353 kts | 248° |
| 2026-05-08 02:24 | 48.19600 | -58.19218 | 37712 ft | 353 kts | 248° |
| 2026-05-08 02:25 | 48.17916 | -58.26123 | 37714 ft | 352 kts | 248° |
| 2026-05-08 02:25 | 48.16242 | -58.32966 | 37708 ft | 352 kts | 248° |
| 2026-05-08 02:26 | 48.14552 | -58.39857 | 37696 ft | 352 kts | 248° |
| 2026-05-08 02:26 | 48.12861 | -58.46731 | 37688 ft | 352 kts | 248° |
| 2026-05-08 02:27 | 48.11165 | -58.53602 | 37701 ft | 352 kts | 247° |
| 2026-05-08 02:27 | 48.09465 | -58.60468 | 37705 ft | 352 kts | 247° |
| 2026-05-08 02:28 | 48.07761 | -58.67327 | 37690 ft | 352 kts | 247° |
| 2026-05-08 02:28 | 48.06055 | -58.74180 | 37702 ft | 352 kts | 247° |
| 2026-05-08 02:29 | 48.04342 | -58.81034 | 37699 ft | 351 kts | 247° |
| 2026-05-08 02:29 | 48.02634 | -58.87849 | 37695 ft | 352 kts | 247° |
| 2026-05-08 02:30 | 48.00901 | -58.94744 | 37705 ft | 352 kts | 247° |
| 2026-05-08 02:30 | 47.99185 | -59.01550 | 37685 ft | 352 kts | 247° |
| 2026-05-08 02:31 | 47.97456 | -59.08387 | 37683 ft | 351 kts | 247° |
| 2026-05-08 02:31 | 47.95722 | -59.15223 | 37698 ft | 351 kts | 246° |
| 2026-05-08 02:32 | 47.93987 | -59.22038 | 37699 ft | 352 kts | 246° |
| 2026-05-08 02:32 | 47.92253 | -59.28833 | 37704 ft | 352 kts | 246° |
| 2026-05-08 02:33 | 47.90494 | -59.35706 | 37697 ft | 352 kts | 246° |
| 2026-05-08 02:33 | 47.88751 | -59.42495 | 37688 ft | 353 kts | 246° |
| 2026-05-08 02:34 | 47.86993 | -59.49322 | 37702 ft | 353 kts | 246° |
| 2026-05-08 02:34 | 47.85232 | -59.56137 | 37698 ft | 352 kts | 246° |
| 2026-05-08 02:35 | 47.83467 | -59.62955 | 37695 ft | 352 kts | 246° |
| 2026-05-08 02:35 | 47.81699 | -59.69762 | 37693 ft | 352 kts | 246° |
| 2026-05-08 02:36 | 47.79929 | -59.76555 | 37699 ft | 352 kts | 246° |
| 2026-05-08 02:36 | 47.78157 | -59.83337 | 37695 ft | 352 kts | 246° |
| 2026-05-08 02:37 | 47.76381 | -59.90113 | 37694 ft | 352 kts | 245° |
| 2026-05-08 02:37 | 47.74612 | -59.96844 | 37698 ft | 351 kts | 245° |
| 2026-05-08 02:38 | 47.72828 | -60.03611 | 37697 ft | 351 kts | 245° |
| 2026-05-08 02:38 | 47.71044 | -60.10358 | 37697 ft | 351 kts | 245° |
| 2026-05-08 02:39 | 47.69259 | -60.17090 | 37695 ft | 350 kts | 245° |
| 2026-05-08 02:39 | 47.67469 | -60.23820 | 37694 ft | 350 kts | 245° |
| 2026-05-08 02:40 | 47.65679 | -60.30532 | 37695 ft | 350 kts | 245° |
| 2026-05-08 02:40 | 47.63884 | -60.37242 | 37697 ft | 350 kts | 245° |
| 2026-05-08 02:41 | 47.62097 | -60.43903 | 37702 ft | 350 kts | 245° |
| 2026-05-08 02:41 | 47.60290 | -60.50622 | 37703 ft | 351 kts | 245° |
| 2026-05-08 02:42 | 47.58475 | -60.57349 | 37704 ft | 352 kts | 244° |
| 2026-05-08 02:42 | 47.56651 | -60.64090 | 37701 ft | 353 kts | 244° |
| 2026-05-08 02:43 | 47.54815 | -60.70856 | 37704 ft | 354 kts | 244° |
| 2026-05-08 02:43 | 47.52986 | -60.77581 | 37705 ft | 354 kts | 244° |
| 2026-05-08 02:44 | 47.51138 | -60.84351 | 37709 ft | 355 kts | 244° |
| 2026-05-08 02:44 | 47.49280 | -60.91142 | 37704 ft | 356 kts | 244° |
| 2026-05-08 02:45 | 47.47420 | -60.97921 | 37709 ft | 356 kts | 244° |
| 2026-05-08 02:45 | 47.45553 | -61.04703 | 37711 ft | 356 kts | 244° |
| 2026-05-08 02:46 | 47.43682 | -61.11482 | 37710 ft | 356 kts | 244° |
| 2026-05-08 02:46 | 47.41812 | -61.18240 | 37710 ft | 357 kts | 244° |
| 2026-05-08 02:47 | 47.40248 | -61.23876 | 37712 ft | 357 kts | 244° |
| 2026-05-08 02:47 | 47.38357 | -61.30672 | 37705 ft | 358 kts | 244° |
| 2026-05-08 02:48 | 47.36463 | -61.37457 | 37701 ft | 358 kts | 244° |
| 2026-05-08 02:48 | 47.34558 | -61.44267 | 37701 ft | 358 kts | 244° |
| 2026-05-08 02:49 | 47.32651 | -61.51063 | 37705 ft | 359 kts | 244° |
| 2026-05-08 02:49 | 47.30738 | -61.57860 | 37688 ft | 359 kts | 243° |
| 2026-05-08 02:50 | 47.28815 | -61.64676 | 37688 ft | 360 kts | 243° |
| 2026-05-08 02:50 | 47.26899 | -61.71445 | 37698 ft | 361 kts | 243° |
| 2026-05-08 02:51 | 47.24961 | -61.78275 | 37692 ft | 361 kts | 243° |
| 2026-05-08 02:51 | 47.23024 | -61.85083 | 37696 ft | 361 kts | 243° |
| 2026-05-08 02:52 | 47.21078 | -61.91902 | 37699 ft | 361 kts | 243° |
| 2026-05-08 02:52 | 47.19129 | -61.98712 | 37707 ft | 361 kts | 243° |
| 2026-05-08 02:53 | 47.17188 | -62.05472 | 37712 ft | 361 kts | 243° |
| 2026-05-08 02:53 | 47.15226 | -62.12291 | 37716 ft | 362 kts | 243° |
| 2026-05-08 02:54 | 47.13261 | -62.19097 | 37716 ft | 362 kts | 243° |
| 2026-05-08 02:54 | 47.11290 | -62.25910 | 37718 ft | 362 kts | 243° |
| 2026-05-08 02:55 | 47.08328 | -62.36108 | 37721 ft | 363 kts | 242° |
| 2026-05-08 02:56 | 47.06342 | -62.42923 | 37722 ft | 363 kts | 242° |
| 2026-05-08 02:56 | 47.04345 | -62.49756 | 37718 ft | 364 kts | 242° |
| 2026-05-08 02:57 | 47.02342 | -62.56589 | 37724 ft | 365 kts | 242° |
| 2026-05-08 02:57 | 47.00338 | -62.63407 | 37723 ft | 367 kts | 242° |
| 2026-05-08 02:58 | 46.98315 | -62.70271 | 37721 ft | 368 kts | 242° |
| 2026-05-08 02:58 | 46.96283 | -62.77151 | 37719 ft | 369 kts | 242° |
| 2026-05-08 02:59 | 46.94239 | -62.84046 | 37715 ft | 370 kts | 242° |
| 2026-05-08 02:59 | 46.92184 | -62.90961 | 37721 ft | 370 kts | 242° |
| 2026-05-08 03:00 | 46.90125 | -62.97873 | 37715 ft | 371 kts | 242° |
| 2026-05-08 03:00 | 46.88061 | -63.04782 | 37721 ft | 371 kts | 242° |
| 2026-05-08 03:01 | 46.85995 | -63.11675 | 37715 ft | 370 kts | 242° |
| 2026-05-08 03:01 | 46.83928 | -63.18556 | 37706 ft | 370 kts | 242° |
| 2026-05-08 03:02 | 46.81848 | -63.25455 | 37706 ft | 371 kts | 242° |
| 2026-05-08 03:02 | 46.79777 | -63.32308 | 37712 ft | 372 kts | 242° |
| 2026-05-08 03:03 | 46.77678 | -63.39235 | 37711 ft | 374 kts | 242° |
| 2026-05-08 03:03 | 46.75568 | -63.46180 | 37707 ft | 375 kts | 242° |
| 2026-05-08 03:04 | 46.73441 | -63.53162 | 37709 ft | 377 kts | 242° |
| 2026-05-08 03:04 | 46.71304 | -63.60155 | 37707 ft | 378 kts | 242° |
| 2026-05-08 03:05 | 46.69155 | -63.67171 | 37707 ft | 379 kts | 242° |
| 2026-05-08 03:05 | 46.67013 | -63.74144 | 37698 ft | 380 kts | 242° |
| 2026-05-08 03:06 | 46.64846 | -63.81177 | 37700 ft | 381 kts | 242° |
| 2026-05-08 03:06 | 46.62669 | -63.88222 | 37701 ft | 382 kts | 242° |
| 2026-05-08 03:07 | 46.60479 | -63.95291 | 37701 ft | 383 kts | 242° |
| 2026-05-08 03:07 | 46.58287 | -64.02348 | 37707 ft | 384 kts | 242° |
| 2026-05-08 03:08 | 46.56082 | -64.09424 | 37695 ft | 385 kts | 242° |
| 2026-05-08 03:08 | 46.53860 | -64.16537 | 37692 ft | 386 kts | 242° |
| 2026-05-08 03:09 | 46.51646 | -64.23602 | 37695 ft | 387 kts | 242° |
| 2026-05-08 03:09 | 46.49413 | -64.30712 | 37698 ft | 388 kts | 242° |
| 2026-05-08 03:10 | 46.47167 | -64.37839 | 37695 ft | 388 kts | 242° |
| 2026-05-08 03:10 | 46.44908 | -64.44989 | 37694 ft | 389 kts | 242° |
| 2026-05-08 03:11 | 46.42643 | -64.52140 | 37694 ft | 390 kts | 242° |
| 2026-05-08 03:11 | 46.40367 | -64.59302 | 37693 ft | 391 kts | 242° |
| 2026-05-08 03:12 | 46.38088 | -64.66457 | 37693 ft | 392 kts | 242° |
| 2026-05-08 03:12 | 46.35809 | -64.73591 | 37694 ft | 393 kts | 242° |
| 2026-05-08 03:13 | 46.33505 | -64.80781 | 37695 ft | 394 kts | 242° |
| 2026-05-08 03:13 | 46.31191 | -64.87983 | 37695 ft | 395 kts | 242° |
| 2026-05-08 03:14 | 46.28872 | -64.95180 | 37697 ft | 396 kts | 242° |
| 2026-05-08 03:14 | 46.26536 | -65.02412 | 37704 ft | 397 kts | 242° |
| 2026-05-08 03:15 | 46.24196 | -65.09635 | 37703 ft | 397 kts | 242° |
| 2026-05-08 03:15 | 46.21860 | -65.16825 | 37706 ft | 398 kts | 242° |
| 2026-05-08 03:16 | 46.19498 | -65.24073 | 37709 ft | 399 kts | 242° |
| 2026-05-08 03:16 | 46.17134 | -65.31310 | 37713 ft | 400 kts | 242° |
| 2026-05-08 03:17 | 46.14753 | -65.38574 | 37711 ft | 401 kts | 242° |
| 2026-05-08 03:17 | 46.12360 | -65.45859 | 37713 ft | 401 kts | 242° |
| 2026-05-08 03:18 | 46.09958 | -65.53150 | 37717 ft | 402 kts | 242° |
| 2026-05-08 03:18 | 46.07554 | -65.60427 | 37715 ft | 403 kts | 242° |
| 2026-05-08 03:19 | 46.05143 | -65.67703 | 37712 ft | 403 kts | 242° |
| 2026-05-08 03:19 | 46.02739 | -65.74943 | 37721 ft | 403 kts | 242° |
| 2026-05-08 03:20 | 46.00311 | -65.82230 | 37724 ft | 403 kts | 242° |
| 2026-05-08 03:20 | 45.97879 | -65.89510 | 37721 ft | 403 kts | 242° |
| 2026-05-08 03:21 | 45.95447 | -65.96770 | 37727 ft | 404 kts | 242° |
| 2026-05-08 03:21 | 45.93002 | -66.04046 | 37727 ft | 404 kts | 242° |
| 2026-05-08 03:22 | 45.90552 | -66.11319 | 37733 ft | 404 kts | 242° |
| 2026-05-08 03:22 | 45.88096 | -66.18591 | 37737 ft | 405 kts | 242° |
| 2026-05-08 03:23 | 45.85648 | -66.25817 | 37745 ft | 405 kts | 242° |
| 2026-05-08 03:23 | 45.83182 | -66.33079 | 37730 ft | 405 kts | 242° |
| 2026-05-08 03:24 | 45.80707 | -66.40343 | 37742 ft | 405 kts | 242° |
| 2026-05-08 03:24 | 45.78229 | -66.47599 | 37737 ft | 406 kts | 242° |
| 2026-05-08 03:25 | 45.75740 | -66.54868 | 37748 ft | 406 kts | 242° |
| 2026-05-08 03:25 | 45.73250 | -66.62118 | 37736 ft | 406 kts | 242° |
| 2026-05-08 03:26 | 45.70760 | -66.69349 | 37739 ft | 406 kts | 242° |
| 2026-05-08 03:26 | 45.68257 | -66.76597 | 37747 ft | 407 kts | 242° |
| 2026-05-08 03:27 | 45.65742 | -66.83862 | 37748 ft | 407 kts | 242° |
| 2026-05-08 03:27 | 45.63224 | -66.91115 | 37755 ft | 407 kts | 242° |
| 2026-05-08 03:28 | 45.61123 | -66.97150 | 37752 ft | 408 kts | 242° |
| 2026-05-08 03:28 | 45.58178 | -67.05590 | 37756 ft | 408 kts | 242° |
| 2026-05-08 03:29 | 45.56068 | -67.11621 | 37764 ft | 408 kts | 242° |
| 2026-05-08 03:29 | 45.53527 | -67.18863 | 37758 ft | 408 kts | 242° |
| 2026-05-08 03:30 | 45.49697 | -67.29747 | 37759 ft | 408 kts | 242° |
| 2026-05-08 03:31 | 45.44597 | -67.44168 | 37769 ft | 409 kts | 242° |
| 2026-05-08 03:32 | 45.40741 | -67.55024 | 37773 ft | 409 kts | 242° |
| 2026-05-08 03:32 | 45.38171 | -67.62240 | 37779 ft | 408 kts | 242° |
| 2026-05-08 03:33 | 45.35485 | -67.69360 | 37786 ft | 407 kts | 236° |
| 2026-05-08 03:33 | 45.32005 | -67.75700 | 37784 ft | 407 kts | 230° |
| 2026-05-08 03:34 | 45.27952 | -67.81269 | 37790 ft | 408 kts | 223° |
| 2026-05-08 03:34 | 45.23586 | -67.86438 | 37779 ft | 408 kts | 222° |
| 2026-05-08 03:35 | 45.19207 | -67.91590 | 37786 ft | 408 kts | 222° |
| 2026-05-08 03:35 | 45.14843 | -67.96754 | 37782 ft | 408 kts | 222° |
| 2026-05-08 03:36 | 45.10497 | -68.01909 | 37782 ft | 407 kts | 222° |
| 2026-05-08 03:36 | 45.06147 | -68.07064 | 37783 ft | 407 kts | 222° |
| 2026-05-08 03:37 | 45.01827 | -68.12174 | 37784 ft | 407 kts | 222° |
| 2026-05-08 03:37 | 44.97478 | -68.17309 | 37791 ft | 407 kts | 222° |
| 2026-05-08 03:38 | 44.93130 | -68.22431 | 37788 ft | 407 kts | 222° |
| 2026-05-08 03:38 | 44.88781 | -68.27544 | 37791 ft | 407 kts | 222° |
| 2026-05-08 03:39 | 44.84420 | -68.32660 | 37784 ft | 407 kts | 222° |
| 2026-05-08 03:39 | 44.80068 | -68.37756 | 37795 ft | 407 kts | 222° |
| 2026-05-08 03:40 | 44.75733 | -68.42820 | 37794 ft | 407 kts | 222° |
| 2026-05-08 03:40 | 44.71373 | -68.47905 | 37790 ft | 407 kts | 222° |
| 2026-05-08 03:41 | 44.66999 | -68.52995 | 37806 ft | 407 kts | 222° |
| 2026-05-08 03:41 | 44.62626 | -68.58074 | 37801 ft | 407 kts | 222° |
| 2026-05-08 03:42 | 44.58261 | -68.63133 | 37800 ft | 407 kts | 222° |
| 2026-05-08 03:42 | 44.53882 | -68.68199 | 37801 ft | 408 kts | 222° |
| 2026-05-08 03:43 | 44.49491 | -68.73267 | 37801 ft | 407 kts | 222° |
| 2026-05-08 03:43 | 44.45115 | -68.78309 | 37800 ft | 407 kts | 222° |
| 2026-05-08 03:44 | 44.40735 | -68.83344 | 37805 ft | 407 kts | 222° |
| 2026-05-08 03:44 | 44.36360 | -68.88365 | 37803 ft | 406 kts | 222° |
| 2026-05-08 03:45 | 44.32016 | -68.93340 | 37808 ft | 406 kts | 222° |
| 2026-05-08 03:45 | 44.27632 | -68.98351 | 37817 ft | 406 kts | 222° |
| 2026-05-08 03:46 | 44.23258 | -69.03339 | 37817 ft | 406 kts | 222° |
| 2026-05-08 03:46 | 44.18885 | -69.08318 | 37810 ft | 406 kts | 222° |
| 2026-05-08 03:47 | 44.14533 | -69.13263 | 37813 ft | 406 kts | 222° |
| 2026-05-08 03:47 | 44.10159 | -69.18222 | 37811 ft | 406 kts | 222° |
| 2026-05-08 03:48 | 44.05777 | -69.23181 | 37812 ft | 406 kts | 222° |
| 2026-05-08 03:48 | 44.01403 | -69.28122 | 37816 ft | 405 kts | 222° |
| 2026-05-08 03:49 | 43.97018 | -69.33065 | 37818 ft | 405 kts | 222° |
| 2026-05-08 03:49 | 43.92631 | -69.38002 | 37821 ft | 405 kts | 222° |
| 2026-05-08 03:50 | 43.88253 | -69.42918 | 37833 ft | 404 kts | 222° |
| 2026-05-08 03:50 | 43.83884 | -69.47815 | 37837 ft | 404 kts | 222° |
| 2026-05-08 03:51 | 43.79508 | -69.52712 | 37836 ft | 404 kts | 222° |
| 2026-05-08 03:51 | 43.75122 | -69.57609 | 37841 ft | 404 kts | 222° |
| 2026-05-08 03:52 | 43.70240 | -69.61541 | 37835 ft | 416 kts | 205° |
| 2026-05-08 03:52 | 43.64721 | -69.63959 | 37836 ft | 419 kts | 204° |
| 2026-05-08 03:53 | 43.59150 | -69.66402 | 37830 ft | 421 kts | 204° |
| 2026-05-08 03:53 | 43.53559 | -69.68897 | 37826 ft | 422 kts | 205° |
| 2026-05-08 03:54 | 43.47999 | -69.71397 | 37826 ft | 422 kts | 205° |
| 2026-05-08 03:54 | 43.42383 | -69.73921 | 37827 ft | 421 kts | 205° |
| 2026-05-08 03:55 | 43.36821 | -69.76416 | 37830 ft | 420 kts | 205° |
| 2026-05-08 03:55 | 43.31263 | -69.78904 | 37834 ft | 419 kts | 205° |
| 2026-05-08 03:56 | 43.25726 | -69.81379 | 37835 ft | 418 kts | 205° |
| 2026-05-08 03:56 | 43.20206 | -69.83841 | 37844 ft | 417 kts | 205° |
| 2026-05-08 03:57 | 43.14683 | -69.86301 | 37836 ft | 417 kts | 205° |
| 2026-05-08 03:57 | 43.09187 | -69.88743 | 37841 ft | 417 kts | 205° |
| 2026-05-08 03:58 | 43.03678 | -69.91187 | 37843 ft | 416 kts | 205° |
| 2026-05-08 03:58 | 42.98161 | -69.93628 | 37844 ft | 416 kts | 205° |
| 2026-05-08 03:59 | 42.92640 | -69.96066 | 37847 ft | 416 kts | 205° |
| 2026-05-08 03:59 | 42.87128 | -69.98497 | 37843 ft | 416 kts | 205° |
| 2026-05-08 04:00 | 42.81591 | -70.00936 | 37843 ft | 416 kts | 205° |
| 2026-05-08 04:00 | 42.76126 | -70.03338 | 37863 ft | 414 kts | 205° |
| 2026-05-08 04:01 | 42.70694 | -70.05973 | 37845 ft | 413 kts | 207° |
| 2026-05-08 04:01 | 42.68099 | -70.07569 | 37838 ft | 403 kts | 218° |
| 2026-05-08 04:01 | 42.65915 | -70.09903 | 37853 ft | 398 kts | 226° |
| 2026-05-08 04:02 | 42.62537 | -70.15764 | 37846 ft | 397 kts | 243° |
| 2026-05-08 04:02 | 42.61271 | -70.19057 | 37833 ft | 384 kts | 235° |
| 2026-05-08 04:02 | 42.59579 | -70.21750 | 37843 ft | 377 kts | 227° |
| 2026-05-08 04:03 | 42.55336 | -70.25883 | 37838 ft | 383 kts | 209° |
| 2026-05-08 04:03 | 42.50666 | -70.29143 | 37870 ft | 369 kts | 226° |
| 2026-05-08 04:03 | 42.48946 | -70.31696 | 37835 ft | 367 kts | 234° |
| 2026-05-08 04:04 | 42.46551 | -70.37618 | 37829 ft | 356 kts | 253° |
| 2026-05-08 04:04 | 42.45516 | -70.44100 | 37851 ft | 354 kts | 255° |
| 2026-05-08 04:05 | 42.44464 | -70.50440 | 37824 ft | 332 kts | 254° |
| 2026-05-08 04:05 | 42.43578 | -70.55309 | 37822 ft | 308 kts | 252° |
| 2026-05-08 04:06 | 42.42365 | -70.60783 | 37839 ft | 301 kts | 250° |
| 2026-05-08 04:06 | 42.41122 | -70.66267 | 37865 ft | 312 kts | 251° |
| 2026-05-08 04:07 | 42.39862 | -70.72082 | 37870 ft | 329 kts | 252° |
| 2026-05-08 04:07 | 42.38619 | -70.78159 | 37873 ft | 345 kts | 253° |
| 2026-05-08 04:08 | 42.37366 | -70.84580 | 37875 ft | 359 kts | 253° |
| 2026-05-08 04:08 | 42.36099 | -70.91094 | 37863 ft | 355 kts | 253° |
| 2026-05-08 04:09 | 42.34845 | -70.97484 | 37870 ft | 351 kts | 253° |
| 2026-05-08 04:09 | 42.33569 | -71.03836 | 37863 ft | 348 kts | 253° |
| 2026-05-08 04:10 | 42.32271 | -71.10125 | 37871 ft | 346 kts | 253° |
| 2026-05-08 04:10 | 42.31053 | -71.16443 | 37868 ft | 346 kts | 254° |
| 2026-05-08 04:11 | 42.29839 | -71.22750 | 37865 ft | 348 kts | 255° |
| 2026-05-08 04:11 | 42.28687 | -71.29102 | 37867 ft | 348 kts | 254° |
| 2026-05-08 04:12 | 42.27499 | -71.35477 | 37872 ft | 349 kts | 254° |
| 2026-05-08 04:12 | 42.26344 | -71.41850 | 37873 ft | 349 kts | 255° |
| 2026-05-08 04:13 | 42.25157 | -71.48212 | 37872 ft | 349 kts | 254° |